<?xml version="1.0" encoding="utf-8"?>
<gpx xmlns:xsi="http://www.w3.org/2001/XMLSchema-instance" xmlns:xsd="http://www.w3.org/2001/XMLSchema" version="1.1" creator="Shapelink.com" xmlns="http://www.topografix.com/GPX/1/1" xmlns:gpxtpx="http://www.garmin.com/xmlschemas/TrackPointExtension/v1">
  <metadata>
    <name>Ejecutar 12.24 km, 2020-03-14</name>
    <desc></desc>
    <author><name>Per Rooth</name></author> 
    <time>2020-03-14T15:10:42Z</time>
  </metadata>
  <trk>
    <name>Ejecutar 12.24 km, 2020-03-14</name>
    <trkseg>
      <trkpt lat="56.873248753536" lon="14.792894199411">
        <ele>176.8</ele>
        <time>2020-03-14T15:10:42Z</time>
      </trkpt>
      <trkpt lat="56.873025040625" lon="14.792907945727">
        <ele>176.6</ele>
        <time>2020-03-14T15:10:50Z</time>
      </trkpt>
      <trkpt lat="56.872830748183" lon="14.792962092801">
        <ele>176.4</ele>
        <time>2020-03-14T15:10:57Z</time>
      </trkpt>
      <trkpt lat="56.872645592012" lon="14.793006433052">
        <ele>176.8</ele>
        <time>2020-03-14T15:11:04Z</time>
      </trkpt>
      <trkpt lat="56.872468985379" lon="14.79294038368">
        <ele>176.8</ele>
        <time>2020-03-14T15:11:11Z</time>
      </trkpt>
      <trkpt lat="56.87228282338" lon="14.792899144732">
        <ele>177</ele>
        <time>2020-03-14T15:11:18Z</time>
      </trkpt>
      <trkpt lat="56.872256252757" lon="14.792891601022">
        <ele>177</ele>
        <time>2020-03-14T15:11:19Z</time>
      </trkpt>
      <trkpt lat="56.872057853184" lon="14.792808955488">
        <ele>177</ele>
        <time>2020-03-14T15:11:25Z</time>
      </trkpt>
      <trkpt lat="56.871871775004" lon="14.792956812204">
        <ele>176.4</ele>
        <time>2020-03-14T15:11:33Z</time>
      </trkpt>
      <trkpt lat="56.871682176426" lon="14.793076338098">
        <ele>176.8</ele>
        <time>2020-03-14T15:11:40Z</time>
      </trkpt>
      <trkpt lat="56.871511940037" lon="14.793173651957">
        <ele>177</ele>
        <time>2020-03-14T15:11:46Z</time>
      </trkpt>
      <trkpt lat="56.871387887917" lon="14.793153703035">
        <ele>176.8</ele>
        <time>2020-03-14T15:11:50Z</time>
      </trkpt>
      <trkpt lat="56.871206503601" lon="14.793083881808">
        <ele>176.4</ele>
        <time>2020-03-14T15:11:56Z</time>
      </trkpt>
      <trkpt lat="56.870999889766" lon="14.793011881287">
        <ele>175.4</ele>
        <time>2020-03-14T15:12:03Z</time>
      </trkpt>
      <trkpt lat="56.870810626464" lon="14.792923200785">
        <ele>175</ele>
        <time>2020-03-14T15:12:10Z</time>
      </trkpt>
      <trkpt lat="56.870675677874" lon="14.7928381245">
        <ele>174.4</ele>
        <time>2020-03-14T15:12:15Z</time>
      </trkpt>
      <trkpt lat="56.870569227744" lon="14.792772326585">
        <ele>174</ele>
        <time>2020-03-14T15:12:19Z</time>
      </trkpt>
      <trkpt lat="56.87038767579" lon="14.792677527296">
        <ele>174</ele>
        <time>2020-03-14T15:12:26Z</time>
      </trkpt>
      <trkpt lat="56.870263204575" lon="14.792591529002">
        <ele>173.4</ele>
        <time>2020-03-14T15:12:31Z</time>
      </trkpt>
      <trkpt lat="56.870094057833" lon="14.792438559327">
        <ele>173.2</ele>
        <time>2020-03-14T15:12:38Z</time>
      </trkpt>
      <trkpt lat="56.869920552503" lon="14.792285505833">
        <ele>172.6</ele>
        <time>2020-03-14T15:12:45Z</time>
      </trkpt>
      <trkpt lat="56.869810246699" lon="14.792030193159">
        <ele>172.4</ele>
        <time>2020-03-14T15:12:51Z</time>
      </trkpt>
      <trkpt lat="56.869798260582" lon="14.791985433813">
        <ele>172.6</ele>
        <time>2020-03-14T15:12:52Z</time>
      </trkpt>
      <trkpt lat="56.869767163733" lon="14.791909493799">
        <ele>172</ele>
        <time>2020-03-14T15:12:54Z</time>
      </trkpt>
      <trkpt lat="56.869640597043" lon="14.791664490862">
        <ele>172</ele>
        <time>2020-03-14T15:13:00Z</time>
      </trkpt>
      <trkpt lat="56.869537248216" lon="14.791459637226">
        <ele>170.6</ele>
        <time>2020-03-14T15:13:06Z</time>
      </trkpt>
      <trkpt lat="56.869384110903" lon="14.791245814957">
        <ele>169.4</ele>
        <time>2020-03-14T15:13:13Z</time>
      </trkpt>
      <trkpt lat="56.86933658553" lon="14.791218070868">
        <ele>168.8</ele>
        <time>2020-03-14T15:13:15Z</time>
      </trkpt>
      <trkpt lat="56.869278079868" lon="14.791301219316">
        <ele>168.6</ele>
        <time>2020-03-14T15:13:19Z</time>
      </trkpt>
      <trkpt lat="56.869272463995" lon="14.791337093848">
        <ele>168.4</ele>
        <time>2020-03-14T15:13:20Z</time>
      </trkpt>
      <trkpt lat="56.869248659399" lon="14.791496852862">
        <ele>168.8</ele>
        <time>2020-03-14T15:13:24Z</time>
      </trkpt>
      <trkpt lat="56.869177497068" lon="14.791837074183">
        <ele>168.4</ele>
        <time>2020-03-14T15:13:32Z</time>
      </trkpt>
      <trkpt lat="56.86910189233" lon="14.792165812301">
        <ele>168.4</ele>
        <time>2020-03-14T15:13:39Z</time>
      </trkpt>
      <trkpt lat="56.869032154922" lon="14.792487258166">
        <ele>168.2</ele>
        <time>2020-03-14T15:13:46Z</time>
      </trkpt>
      <trkpt lat="56.868947246275" lon="14.79281381699">
        <ele>168.6</ele>
        <time>2020-03-14T15:13:53Z</time>
      </trkpt>
      <trkpt lat="56.86885714085" lon="14.79310215435">
        <ele>169</ele>
        <time>2020-03-14T15:13:59Z</time>
      </trkpt>
      <trkpt lat="56.868767286882" lon="14.793401555818">
        <ele>169</ele>
        <time>2020-03-14T15:14:05Z</time>
      </trkpt>
      <trkpt lat="56.868679863665" lon="14.793733814334">
        <ele>168.6</ele>
        <time>2020-03-14T15:14:12Z</time>
      </trkpt>
      <trkpt lat="56.868614317207" lon="14.79409121855">
        <ele>167.8</ele>
        <time>2020-03-14T15:14:19Z</time>
      </trkpt>
      <trkpt lat="56.868493114933" lon="14.794343094645">
        <ele>168.2</ele>
        <time>2020-03-14T15:14:25Z</time>
      </trkpt>
      <trkpt lat="56.868393370323" lon="14.794626067589">
        <ele>168.4</ele>
        <time>2020-03-14T15:14:31Z</time>
      </trkpt>
      <trkpt lat="56.868294212446" lon="14.79492605579">
        <ele>168.4</ele>
        <time>2020-03-14T15:14:38Z</time>
      </trkpt>
      <trkpt lat="56.86820335265" lon="14.795222104498">
        <ele>168.6</ele>
        <time>2020-03-14T15:14:45Z</time>
      </trkpt>
      <trkpt lat="56.868139817848" lon="14.795535755196">
        <ele>168.6</ele>
        <time>2020-03-14T15:14:51Z</time>
      </trkpt>
      <trkpt lat="56.868089274991" lon="14.795638601109">
        <ele>168.6</ele>
        <time>2020-03-14T15:14:53Z</time>
      </trkpt>
      <trkpt lat="56.868042168713" lon="14.795624938612">
        <ele>168.8</ele>
        <time>2020-03-14T15:14:55Z</time>
      </trkpt>
      <trkpt lat="56.867892551798" lon="14.795420839347">
        <ele>169</ele>
        <time>2020-03-14T15:15:02Z</time>
      </trkpt>
      <trkpt lat="56.867787861867" lon="14.795241969601">
        <ele>169.4</ele>
        <time>2020-03-14T15:15:07Z</time>
      </trkpt>
      <trkpt lat="56.867623408989" lon="14.795032338282">
        <ele>170</ele>
        <time>2020-03-14T15:15:14Z</time>
      </trkpt>
      <trkpt lat="56.867473372979" lon="14.794826646456">
        <ele>170.4</ele>
        <time>2020-03-14T15:15:20Z</time>
      </trkpt>
      <trkpt lat="56.867426015244" lon="14.794771158278">
        <ele>170.4</ele>
        <time>2020-03-14T15:15:22Z</time>
      </trkpt>
      <trkpt lat="56.867273380845" lon="14.794524395142">
        <ele>171</ele>
        <time>2020-03-14T15:15:29Z</time>
      </trkpt>
      <trkpt lat="56.867144299585" lon="14.794263298957">
        <ele>171.6</ele>
        <time>2020-03-14T15:15:35Z</time>
      </trkpt>
      <trkpt lat="56.866987893331" lon="14.794054254371">
        <ele>172.2</ele>
        <time>2020-03-14T15:15:42Z</time>
      </trkpt>
      <trkpt lat="56.866824194824" lon="14.793883179792">
        <ele>172.2</ele>
        <time>2020-03-14T15:15:49Z</time>
      </trkpt>
      <trkpt lat="56.866709446613" lon="14.793614875173">
        <ele>172.4</ele>
        <time>2020-03-14T15:15:55Z</time>
      </trkpt>
      <trkpt lat="56.866690503519" lon="14.793575480243">
        <ele>172.8</ele>
        <time>2020-03-14T15:15:56Z</time>
      </trkpt>
      <trkpt lat="56.866548011219" lon="14.793353862807">
        <ele>173.6</ele>
        <time>2020-03-14T15:16:02Z</time>
      </trkpt>
      <trkpt lat="56.866405518919" lon="14.79317842964">
        <ele>173.8</ele>
        <time>2020-03-14T15:16:08Z</time>
      </trkpt>
      <trkpt lat="56.866225475707" lon="14.793015736961">
        <ele>173.4</ele>
        <time>2020-03-14T15:16:16Z</time>
      </trkpt>
      <trkpt lat="56.866114499351" lon="14.792945664277">
        <ele>173.2</ele>
        <time>2020-03-14T15:16:20Z</time>
      </trkpt>
      <trkpt lat="56.865959015106" lon="14.792810967144">
        <ele>172.6</ele>
        <time>2020-03-14T15:16:26Z</time>
      </trkpt>
      <trkpt lat="56.865771260546" lon="14.792695967476">
        <ele>172</ele>
        <time>2020-03-14T15:16:33Z</time>
      </trkpt>
      <trkpt lat="56.865708396296" lon="14.792649028836">
        <ele>171.6</ele>
        <time>2020-03-14T15:16:35Z</time>
      </trkpt>
      <trkpt lat="56.865523240125" lon="14.792533693892">
        <ele>171</ele>
        <time>2020-03-14T15:16:41Z</time>
      </trkpt>
      <trkpt lat="56.865457358391" lon="14.792490527107">
        <ele>170.4</ele>
        <time>2020-03-14T15:16:43Z</time>
      </trkpt>
      <trkpt lat="56.865283182509" lon="14.792394805809">
        <ele>169.4</ele>
        <time>2020-03-14T15:16:48Z</time>
      </trkpt>
      <trkpt lat="56.86509450594" lon="14.792241836134">
        <ele>168.4</ele>
        <time>2020-03-14T15:16:54Z</time>
      </trkpt>
      <trkpt lat="56.86491848604" lon="14.792104121517">
        <ele>168.4</ele>
        <time>2020-03-14T15:17:00Z</time>
      </trkpt>
      <trkpt lat="56.864797535223" lon="14.791843779703">
        <ele>169.2</ele>
        <time>2020-03-14T15:17:07Z</time>
      </trkpt>
      <trkpt lat="56.864672141999" lon="14.791598273852">
        <ele>169.8</ele>
        <time>2020-03-14T15:17:13Z</time>
      </trkpt>
      <trkpt lat="56.864642050978" lon="14.791507749332">
        <ele>170.2</ele>
        <time>2020-03-14T15:17:15Z</time>
      </trkpt>
      <trkpt lat="56.864614642165" lon="14.791428121282">
        <ele>170.4</ele>
        <time>2020-03-14T15:17:17Z</time>
      </trkpt>
      <trkpt lat="56.86454716787" lon="14.791097120051">
        <ele>171.4</ele>
        <time>2020-03-14T15:17:23Z</time>
      </trkpt>
      <trkpt lat="56.864538534513" lon="14.791032244145">
        <ele>171.6</ele>
        <time>2020-03-14T15:17:24Z</time>
      </trkpt>
      <trkpt lat="56.864525626387" lon="14.790864270869">
        <ele>171.6</ele>
        <time>2020-03-14T15:17:27Z</time>
      </trkpt>
      <trkpt lat="56.864484638896" lon="14.790705685321">
        <ele>171.2</ele>
        <time>2020-03-14T15:17:32Z</time>
      </trkpt>
      <trkpt lat="56.864350612315" lon="14.790698728344">
        <ele>170.8</ele>
        <time>2020-03-14T15:17:39Z</time>
      </trkpt>
      <trkpt lat="56.864325382796" lon="14.790702835475">
        <ele>170.6</ele>
        <time>2020-03-14T15:17:41Z</time>
      </trkpt>
      <trkpt lat="56.864270984265" lon="14.790728567908">
        <ele>170.8</ele>
        <time>2020-03-14T15:17:45Z</time>
      </trkpt>
      <trkpt lat="56.864172413121" lon="14.790739883473">
        <ele>170.8</ele>
        <time>2020-03-14T15:17:49Z</time>
      </trkpt>
      <trkpt lat="56.863952555884" lon="14.790670816617">
        <ele>171</ele>
        <time>2020-03-14T15:17:56Z</time>
      </trkpt>
      <trkpt lat="56.863748037524" lon="14.790614993163">
        <ele>171.4</ele>
        <time>2020-03-14T15:18:04Z</time>
      </trkpt>
      <trkpt lat="56.863535388721" lon="14.790602587951">
        <ele>172.2</ele>
        <time>2020-03-14T15:18:10Z</time>
      </trkpt>
      <trkpt lat="56.86334520341" lon="14.790692190462">
        <ele>172.2</ele>
        <time>2020-03-14T15:18:16Z</time>
      </trkpt>
      <trkpt lat="56.86314739057" lon="14.79086921619">
        <ele>172</ele>
        <time>2020-03-14T15:18:21Z</time>
      </trkpt>
      <trkpt lat="56.8630945846" lon="14.790913724079">
        <ele>172</ele>
        <time>2020-03-14T15:18:22Z</time>
      </trkpt>
      <trkpt lat="56.862920827813" lon="14.791134754782">
        <ele>172</ele>
        <time>2020-03-14T15:18:27Z</time>
      </trkpt>
      <trkpt lat="56.862769450699" lon="14.791393671673">
        <ele>171.6</ele>
        <time>2020-03-14T15:18:34Z</time>
      </trkpt>
      <trkpt lat="56.862653193746" lon="14.791718135022">
        <ele>171.4</ele>
        <time>2020-03-14T15:18:41Z</time>
      </trkpt>
      <trkpt lat="56.862518999527" lon="14.791967664185">
        <ele>170.8</ele>
        <time>2020-03-14T15:18:47Z</time>
      </trkpt>
      <trkpt lat="56.862379776168" lon="14.792223144497">
        <ele>171</ele>
        <time>2020-03-14T15:18:54Z</time>
      </trkpt>
      <trkpt lat="56.862275924427" lon="14.79247099728">
        <ele>170.4</ele>
        <time>2020-03-14T15:18:59Z</time>
      </trkpt>
      <trkpt lat="56.86215748818" lon="14.79271742514">
        <ele>170.6</ele>
        <time>2020-03-14T15:19:05Z</time>
      </trkpt>
      <trkpt lat="56.862031256766" lon="14.792994111659">
        <ele>170.8</ele>
        <time>2020-03-14T15:19:11Z</time>
      </trkpt>
      <trkpt lat="56.861893961244" lon="14.793291836747">
        <ele>170.8</ele>
        <time>2020-03-14T15:19:17Z</time>
      </trkpt>
      <trkpt lat="56.861770076762" lon="14.793551591828">
        <ele>171</ele>
        <time>2020-03-14T15:19:22Z</time>
      </trkpt>
      <trkpt lat="56.861671170342" lon="14.793831631107">
        <ele>170.8</ele>
        <time>2020-03-14T15:19:28Z</time>
      </trkpt>
      <trkpt lat="56.861534042458" lon="14.79407110199">
        <ele>170.8</ele>
        <time>2020-03-14T15:19:34Z</time>
      </trkpt>
      <trkpt lat="56.86143915935" lon="14.794314260909">
        <ele>171</ele>
        <time>2020-03-14T15:19:40Z</time>
      </trkpt>
      <trkpt lat="56.861299600715" lon="14.794552642145">
        <ele>171.4</ele>
        <time>2020-03-14T15:19:46Z</time>
      </trkpt>
      <trkpt lat="56.861283591286" lon="14.794592707627">
        <ele>171.4</ele>
        <time>2020-03-14T15:19:47Z</time>
      </trkpt>
      <trkpt lat="56.861121904435" lon="14.794835866546">
        <ele>171.2</ele>
        <time>2020-03-14T15:19:53Z</time>
      </trkpt>
      <trkpt lat="56.861039091263" lon="14.794957571734">
        <ele>171.6</ele>
        <time>2020-03-14T15:19:56Z</time>
      </trkpt>
      <trkpt lat="56.860944208155" lon="14.795253368985">
        <ele>171.4</ele>
        <time>2020-03-14T15:20:02Z</time>
      </trkpt>
      <trkpt lat="56.860956529548" lon="14.795577245601">
        <ele>170.4</ele>
        <time>2020-03-14T15:20:07Z</time>
      </trkpt>
      <trkpt lat="56.860986955845" lon="14.795775309898">
        <ele>169.6</ele>
        <time>2020-03-14T15:20:11Z</time>
      </trkpt>
      <trkpt lat="56.86099156589" lon="14.795823002909">
        <ele>169.2</ele>
        <time>2020-03-14T15:20:12Z</time>
      </trkpt>
      <trkpt lat="56.861078318555" lon="14.796134222856">
        <ele>168.4</ele>
        <time>2020-03-14T15:20:18Z</time>
      </trkpt>
      <trkpt lat="56.861096507278" lon="14.796184598075">
        <ele>168.2</ele>
        <time>2020-03-14T15:20:19Z</time>
      </trkpt>
      <trkpt lat="56.861222822511" lon="14.796445442803">
        <ele>167.4</ele>
        <time>2020-03-14T15:20:25Z</time>
      </trkpt>
      <trkpt lat="56.861299433077" lon="14.796572177131">
        <ele>167</ele>
        <time>2020-03-14T15:20:28Z</time>
      </trkpt>
      <trkpt lat="56.861467573991" lon="14.796775857301">
        <ele>166.2</ele>
        <time>2020-03-14T15:20:34Z</time>
      </trkpt>
      <trkpt lat="56.861531024974" lon="14.796841152302">
        <ele>166</ele>
        <time>2020-03-14T15:20:36Z</time>
      </trkpt>
      <trkpt lat="56.861691957454" lon="14.797055812761">
        <ele>165.8</ele>
        <time>2020-03-14T15:20:42Z</time>
      </trkpt>
      <trkpt lat="56.861813914099" lon="14.797213643938">
        <ele>165.8</ele>
        <time>2020-03-14T15:20:47Z</time>
      </trkpt>
      <trkpt lat="56.861963195738" lon="14.797425370732">
        <ele>166</ele>
        <time>2020-03-14T15:20:52Z</time>
      </trkpt>
      <trkpt lat="56.862053301163" lon="14.797662075588">
        <ele>165.8</ele>
        <time>2020-03-14T15:20:57Z</time>
      </trkpt>
      <trkpt lat="56.862037207915" lon="14.797854859288">
        <ele>165.8</ele>
        <time>2020-03-14T15:21:00Z</time>
      </trkpt>
      <trkpt lat="56.861929919595" lon="14.798192566039">
        <ele>165.8</ele>
        <time>2020-03-14T15:21:06Z</time>
      </trkpt>
      <trkpt lat="56.861800670697" lon="14.798473527327">
        <ele>165.6</ele>
        <time>2020-03-14T15:21:12Z</time>
      </trkpt>
      <trkpt lat="56.861708302159" lon="14.798795392287">
        <ele>165.6</ele>
        <time>2020-03-14T15:21:18Z</time>
      </trkpt>
      <trkpt lat="56.86165457418" lon="14.799162938602">
        <ele>166</ele>
        <time>2020-03-14T15:21:25Z</time>
      </trkpt>
      <trkpt lat="56.861591374654" lon="14.799483881553">
        <ele>165.8</ele>
        <time>2020-03-14T15:21:32Z</time>
      </trkpt>
      <trkpt lat="56.861490791854" lon="14.799844470891">
        <ele>165.6</ele>
        <time>2020-03-14T15:21:39Z</time>
      </trkpt>
      <trkpt lat="56.861401189343" lon="14.800145632558">
        <ele>165.6</ele>
        <time>2020-03-14T15:21:44Z</time>
      </trkpt>
      <trkpt lat="56.861337989817" lon="14.800476969065">
        <ele>165.4</ele>
        <time>2020-03-14T15:21:51Z</time>
      </trkpt>
      <trkpt lat="56.861257020663" lon="14.800779807112">
        <ele>165.4</ele>
        <time>2020-03-14T15:21:57Z</time>
      </trkpt>
      <trkpt lat="56.861186780341" lon="14.801087841937">
        <ele>165.6</ele>
        <time>2020-03-14T15:22:03Z</time>
      </trkpt>
      <trkpt lat="56.861098938029" lon="14.801417753521">
        <ele>165.4</ele>
        <time>2020-03-14T15:22:09Z</time>
      </trkpt>
      <trkpt lat="56.86097815485" lon="14.80170030737">
        <ele>165.6</ele>
        <time>2020-03-14T15:22:15Z</time>
      </trkpt>
      <trkpt lat="56.86087002834" lon="14.801987555083">
        <ele>165.2</ele>
        <time>2020-03-14T15:22:22Z</time>
      </trkpt>
      <trkpt lat="56.860833902351" lon="14.802197521678">
        <ele>166.4</ele>
        <time>2020-03-14T15:22:26Z</time>
      </trkpt>
      <trkpt lat="56.860773804128" lon="14.802516788249">
        <ele>166</ele>
        <time>2020-03-14T15:22:33Z</time>
      </trkpt>
      <trkpt lat="56.860638101167" lon="14.802784673773">
        <ele>165.8</ele>
        <time>2020-03-14T15:22:39Z</time>
      </trkpt>
      <trkpt lat="56.860523352956" lon="14.803070161287">
        <ele>165.6</ele>
        <time>2020-03-14T15:22:44Z</time>
      </trkpt>
      <trkpt lat="56.860490579727" lon="14.80319647652">
        <ele>164.8</ele>
        <time>2020-03-14T15:22:46Z</time>
      </trkpt>
      <trkpt lat="56.860404497614" lon="14.803485568251">
        <ele>165.6</ele>
        <time>2020-03-14T15:22:51Z</time>
      </trkpt>
      <trkpt lat="56.860280529313" lon="14.803745239513">
        <ele>165.4</ele>
        <time>2020-03-14T15:22:57Z</time>
      </trkpt>
      <trkpt lat="56.860191681173" lon="14.804034415063">
        <ele>165.4</ele>
        <time>2020-03-14T15:23:03Z</time>
      </trkpt>
      <trkpt lat="56.860169552957" lon="14.804413025486">
        <ele>165</ele>
        <time>2020-03-14T15:23:09Z</time>
      </trkpt>
      <trkpt lat="56.860180449427" lon="14.804650568532">
        <ele>165</ele>
        <time>2020-03-14T15:23:12Z</time>
      </trkpt>
      <trkpt lat="56.860152202424" lon="14.805043763461">
        <ele>164.8</ele>
        <time>2020-03-14T15:23:17Z</time>
      </trkpt>
      <trkpt lat="56.860069975985" lon="14.8054025926">
        <ele>165.2</ele>
        <time>2020-03-14T15:23:23Z</time>
      </trkpt>
      <trkpt lat="56.859974673782" lon="14.805720685705">
        <ele>165</ele>
        <time>2020-03-14T15:23:28Z</time>
      </trkpt>
      <trkpt lat="56.859876521733" lon="14.806052525126">
        <ele>165</ele>
        <time>2020-03-14T15:23:34Z</time>
      </trkpt>
      <trkpt lat="56.859780129883" lon="14.806366930195">
        <ele>165.6</ele>
        <time>2020-03-14T15:23:40Z</time>
      </trkpt>
      <trkpt lat="56.859609222942" lon="14.806551499633">
        <ele>165.2</ele>
        <time>2020-03-14T15:23:46Z</time>
      </trkpt>
      <trkpt lat="56.859552561298" lon="14.806582261206">
        <ele>166</ele>
        <time>2020-03-14T15:23:48Z</time>
      </trkpt>
      <trkpt lat="56.859371679896" lon="14.80664981932">
        <ele>165.2</ele>
        <time>2020-03-14T15:23:55Z</time>
      </trkpt>
      <trkpt lat="56.859205383" lon="14.806811925266">
        <ele>166.2</ele>
        <time>2020-03-14T15:24:01Z</time>
      </trkpt>
      <trkpt lat="56.859090802427" lon="14.806919967957">
        <ele>165.8</ele>
        <time>2020-03-14T15:24:05Z</time>
      </trkpt>
      <trkpt lat="56.859047551823" lon="14.806906221641">
        <ele>166.2</ele>
        <time>2020-03-14T15:24:07Z</time>
      </trkpt>
      <trkpt lat="56.858880332918" lon="14.806846877789">
        <ele>165.2</ele>
        <time>2020-03-14T15:24:14Z</time>
      </trkpt>
      <trkpt lat="56.858823084541" lon="14.806833215292">
        <ele>165.4</ele>
        <time>2020-03-14T15:24:16Z</time>
      </trkpt>
      <trkpt lat="56.858633150687" lon="14.806912340428">
        <ele>166</ele>
        <time>2020-03-14T15:24:21Z</time>
      </trkpt>
      <trkpt lat="56.858440618444" lon="14.80703873948">
        <ele>165</ele>
        <time>2020-03-14T15:24:26Z</time>
      </trkpt>
      <trkpt lat="56.858263089802" lon="14.807112919295">
        <ele>166.2</ele>
        <time>2020-03-14T15:24:31Z</time>
      </trkpt>
      <trkpt lat="56.858127219203" lon="14.80710998563">
        <ele>165.6</ele>
        <time>2020-03-14T15:24:35Z</time>
      </trkpt>
      <trkpt lat="56.858000652513" lon="14.807081151894">
        <ele>165.2</ele>
        <time>2020-03-14T15:24:38Z</time>
      </trkpt>
      <trkpt lat="56.857788338986" lon="14.807061622067">
        <ele>166.2</ele>
        <time>2020-03-14T15:24:44Z</time>
      </trkpt>
      <trkpt lat="56.857585916101" lon="14.807050977054">
        <ele>165.4</ele>
        <time>2020-03-14T15:24:50Z</time>
      </trkpt>
      <trkpt lat="56.857380811008" lon="14.806951819177">
        <ele>166.8</ele>
        <time>2020-03-14T15:24:55Z</time>
      </trkpt>
      <trkpt lat="56.857212586275" lon="14.806797759855">
        <ele>165.2</ele>
        <time>2020-03-14T15:25:00Z</time>
      </trkpt>
      <trkpt lat="56.857032291606" lon="14.80665484846">
        <ele>165.8</ele>
        <time>2020-03-14T15:25:05Z</time>
      </trkpt>
      <trkpt lat="56.856854595326" lon="14.806432309015">
        <ele>164.8</ele>
        <time>2020-03-14T15:25:10Z</time>
      </trkpt>
      <trkpt lat="56.856715455786" lon="14.806210440122">
        <ele>165.6</ele>
        <time>2020-03-14T15:25:16Z</time>
      </trkpt>
      <trkpt lat="56.856552008736" lon="14.806044981416">
        <ele>165</ele>
        <time>2020-03-14T15:25:22Z</time>
      </trkpt>
      <trkpt lat="56.856380012148" lon="14.805941381132">
        <ele>165.6</ele>
        <time>2020-03-14T15:25:28Z</time>
      </trkpt>
      <trkpt lat="56.85620717737" lon="14.805825710912">
        <ele>165</ele>
        <time>2020-03-14T15:25:33Z</time>
      </trkpt>
      <trkpt lat="56.856029397271" lon="14.805728899967">
        <ele>165.4</ele>
        <time>2020-03-14T15:25:38Z</time>
      </trkpt>
      <trkpt lat="56.855837116485" lon="14.805552209515">
        <ele>165</ele>
        <time>2020-03-14T15:25:44Z</time>
      </trkpt>
      <trkpt lat="56.85574701106" lon="14.805224561044">
        <ele>165.2</ele>
        <time>2020-03-14T15:25:50Z</time>
      </trkpt>
      <trkpt lat="56.855690684692" lon="14.804880148773">
        <ele>165.6</ele>
        <time>2020-03-14T15:25:56Z</time>
      </trkpt>
      <trkpt lat="56.855704850103" lon="14.804526181136">
        <ele>165.4</ele>
        <time>2020-03-14T15:26:03Z</time>
      </trkpt>
      <trkpt lat="56.855760338281" lon="14.804206579289">
        <ele>165.4</ele>
        <time>2020-03-14T15:26:09Z</time>
      </trkpt>
      <trkpt lat="56.855873996845" lon="14.803936179195">
        <ele>165.6</ele>
        <time>2020-03-14T15:26:14Z</time>
      </trkpt>
      <trkpt lat="56.855919594381" lon="14.803850013263">
        <ele>166</ele>
        <time>2020-03-14T15:26:16Z</time>
      </trkpt>
      <trkpt lat="56.856054375333" lon="14.803559077514">
        <ele>166.2</ele>
        <time>2020-03-14T15:26:23Z</time>
      </trkpt>
      <trkpt lat="56.856163088576" lon="14.803292197818">
        <ele>166.2</ele>
        <time>2020-03-14T15:26:29Z</time>
      </trkpt>
      <trkpt lat="56.85622561755" lon="14.802979133853">
        <ele>165.8</ele>
        <time>2020-03-14T15:26:35Z</time>
      </trkpt>
      <trkpt lat="56.856199885117" lon="14.802650060459">
        <ele>167.2</ele>
        <time>2020-03-14T15:26:41Z</time>
      </trkpt>
      <trkpt lat="56.856176583435" lon="14.80246976579">
        <ele>168.4</ele>
        <time>2020-03-14T15:26:44Z</time>
      </trkpt>
      <trkpt lat="56.856151521554" lon="14.802182015163">
        <ele>167.4</ele>
        <time>2020-03-14T15:26:48Z</time>
      </trkpt>
      <trkpt lat="56.856082370879" lon="14.801886553188">
        <ele>168.4</ele>
        <time>2020-03-14T15:26:53Z</time>
      </trkpt>
      <trkpt lat="56.855966868297" lon="14.801616572189">
        <ele>168.4</ele>
        <time>2020-03-14T15:26:59Z</time>
      </trkpt>
      <trkpt lat="56.85579646427" lon="14.801480869228">
        <ele>168.2</ele>
        <time>2020-03-14T15:27:07Z</time>
      </trkpt>
      <trkpt lat="56.855603764389" lon="14.801365115189">
        <ele>167.6</ele>
        <time>2020-03-14T15:27:14Z</time>
      </trkpt>
      <trkpt lat="56.855539475216" lon="14.801342651697">
        <ele>167.4</ele>
        <time>2020-03-14T15:27:16Z</time>
      </trkpt>
      <trkpt lat="56.855359012909" lon="14.801257323955">
        <ele>167</ele>
        <time>2020-03-14T15:27:22Z</time>
      </trkpt>
      <trkpt lat="56.855190201443" lon="14.801102174986">
        <ele>167.2</ele>
        <time>2020-03-14T15:27:28Z</time>
      </trkpt>
      <trkpt lat="56.855032118809" lon="14.800900757929">
        <ele>166.6</ele>
        <time>2020-03-14T15:27:33Z</time>
      </trkpt>
      <trkpt lat="56.854999848494" lon="14.800865805406">
        <ele>166.4</ele>
        <time>2020-03-14T15:27:34Z</time>
      </trkpt>
      <trkpt lat="56.854840508575" lon="14.800699257053">
        <ele>165.6</ele>
        <time>2020-03-14T15:27:40Z</time>
      </trkpt>
      <trkpt lat="56.854660549182" lon="14.80050923938">
        <ele>165.4</ele>
        <time>2020-03-14T15:27:46Z</time>
      </trkpt>
      <trkpt lat="56.854495258114" lon="14.800362639949">
        <ele>165.8</ele>
        <time>2020-03-14T15:27:51Z</time>
      </trkpt>
      <trkpt lat="56.854301384767" lon="14.800245041892">
        <ele>165.6</ele>
        <time>2020-03-14T15:27:57Z</time>
      </trkpt>
      <trkpt lat="56.854130477826" lon="14.800028705053">
        <ele>165.6</ele>
        <time>2020-03-14T15:28:03Z</time>
      </trkpt>
      <trkpt lat="56.853976083228" lon="14.799792251654">
        <ele>165.4</ele>
        <time>2020-03-14T15:28:09Z</time>
      </trkpt>
      <trkpt lat="56.853885642527" lon="14.799712707423">
        <ele>165.4</ele>
        <time>2020-03-14T15:28:12Z</time>
      </trkpt>
      <trkpt lat="56.853698893795" lon="14.799530820193">
        <ele>165.8</ele>
        <time>2020-03-14T15:28:18Z</time>
      </trkpt>
      <trkpt lat="56.853523628266" lon="14.799392267386">
        <ele>165.6</ele>
        <time>2020-03-14T15:28:23Z</time>
      </trkpt>
      <trkpt lat="56.853362779605" lon="14.79923183782">
        <ele>165.6</ele>
        <time>2020-03-14T15:28:29Z</time>
      </trkpt>
      <trkpt lat="56.853194387234" lon="14.799032600057">
        <ele>165.8</ele>
        <time>2020-03-14T15:28:35Z</time>
      </trkpt>
      <trkpt lat="56.853026833053" lon="14.798901674779">
        <ele>165.2</ele>
        <time>2020-03-14T15:28:40Z</time>
      </trkpt>
      <trkpt lat="56.852861039071" lon="14.798740490842">
        <ele>165.6</ele>
        <time>2020-03-14T15:28:47Z</time>
      </trkpt>
      <trkpt lat="56.852700106591" lon="14.798578636353">
        <ele>165.6</ele>
        <time>2020-03-14T15:28:52Z</time>
      </trkpt>
      <trkpt lat="56.852517045895" lon="14.798400269521">
        <ele>165.6</ele>
        <time>2020-03-14T15:28:57Z</time>
      </trkpt>
      <trkpt lat="56.852325016566" lon="14.7982695957">
        <ele>165.8</ele>
        <time>2020-03-14T15:29:03Z</time>
      </trkpt>
      <trkpt lat="56.852161820973" lon="14.798107405935">
        <ele>165.8</ele>
        <time>2020-03-14T15:29:10Z</time>
      </trkpt>
      <trkpt lat="56.851967863807" lon="14.797982264168">
        <ele>165.6</ele>
        <time>2020-03-14T15:29:17Z</time>
      </trkpt>
      <trkpt lat="56.851777007944" lon="14.79788151373">
        <ele>165.2</ele>
        <time>2020-03-14T15:29:23Z</time>
      </trkpt>
      <trkpt lat="56.851592522325" lon="14.797811860141">
        <ele>164.8</ele>
        <time>2020-03-14T15:29:28Z</time>
      </trkpt>
      <trkpt lat="56.851404516308" lon="14.797761065827">
        <ele>165.2</ele>
        <time>2020-03-14T15:29:34Z</time>
      </trkpt>
      <trkpt lat="56.851214414816" lon="14.797705745287">
        <ele>166</ele>
        <time>2020-03-14T15:29:40Z</time>
      </trkpt>
      <trkpt lat="56.851194717351" lon="14.79769795012">
        <ele>165.8</ele>
        <time>2020-03-14T15:29:41Z</time>
      </trkpt>
      <trkpt lat="56.851013668311" lon="14.79766106976">
        <ele>165.2</ele>
        <time>2020-03-14T15:29:47Z</time>
      </trkpt>
      <trkpt lat="56.850805797191" lon="14.797650424747">
        <ele>165.4</ele>
        <time>2020-03-14T15:29:53Z</time>
      </trkpt>
      <trkpt lat="56.850624664332" lon="14.797650257109">
        <ele>165.4</ele>
        <time>2020-03-14T15:29:58Z</time>
      </trkpt>
      <trkpt lat="56.850441603636" lon="14.797607257962">
        <ele>165.2</ele>
        <time>2020-03-14T15:30:03Z</time>
      </trkpt>
      <trkpt lat="56.850228284281" lon="14.797528300464">
        <ele>165.8</ele>
        <time>2020-03-14T15:30:09Z</time>
      </trkpt>
      <trkpt lat="56.850011612166" lon="14.797494353769">
        <ele>165.2</ele>
        <time>2020-03-14T15:30:14Z</time>
      </trkpt>
      <trkpt lat="56.849795945879" lon="14.797494856683">
        <ele>165.8</ele>
        <time>2020-03-14T15:30:19Z</time>
      </trkpt>
      <trkpt lat="56.849738362226" lon="14.797453366278">
        <ele>166.6</ele>
        <time>2020-03-14T15:30:21Z</time>
      </trkpt>
      <trkpt lat="56.849575921004" lon="14.797297882033">
        <ele>166</ele>
        <time>2020-03-14T15:30:26Z</time>
      </trkpt>
      <trkpt lat="56.849538286273" lon="14.797282543156">
        <ele>165.6</ele>
        <time>2020-03-14T15:30:27Z</time>
      </trkpt>
      <trkpt lat="56.849340305795" lon="14.797154300086">
        <ele>165.4</ele>
        <time>2020-03-14T15:30:33Z</time>
      </trkpt>
      <trkpt lat="56.84916721956" lon="14.797068301792">
        <ele>165.4</ele>
        <time>2020-03-14T15:30:38Z</time>
      </trkpt>
      <trkpt lat="56.848983404493" lon="14.796994038158">
        <ele>165.6</ele>
        <time>2020-03-14T15:30:44Z</time>
      </trkpt>
      <trkpt lat="56.848807552231" lon="14.79694860826">
        <ele>165.4</ele>
        <time>2020-03-14T15:30:51Z</time>
      </trkpt>
      <trkpt lat="56.848586521528" lon="14.7969620193">
        <ele>166.6</ele>
        <time>2020-03-14T15:30:57Z</time>
      </trkpt>
      <trkpt lat="56.848411088361" lon="14.796867471468">
        <ele>166.4</ele>
        <time>2020-03-14T15:31:01Z</time>
      </trkpt>
      <trkpt lat="56.848232386253" lon="14.796730092127">
        <ele>167</ele>
        <time>2020-03-14T15:31:06Z</time>
      </trkpt>
      <trkpt lat="56.848033735223" lon="14.796644261471">
        <ele>166.8</ele>
        <time>2020-03-14T15:31:11Z</time>
      </trkpt>
      <trkpt lat="56.847849752518" lon="14.796507301225">
        <ele>167.8</ele>
        <time>2020-03-14T15:31:17Z</time>
      </trkpt>
      <trkpt lat="56.847686808382" lon="14.796365311839">
        <ele>167.8</ele>
        <time>2020-03-14T15:31:22Z</time>
      </trkpt>
      <trkpt lat="56.847541885331" lon="14.796169762112">
        <ele>167.6</ele>
        <time>2020-03-14T15:31:27Z</time>
      </trkpt>
      <trkpt lat="56.847373241503" lon="14.795953509092">
        <ele>167.2</ele>
        <time>2020-03-14T15:31:33Z</time>
      </trkpt>
      <trkpt lat="56.847212225204" lon="14.795784027074">
        <ele>168.2</ele>
        <time>2020-03-14T15:31:39Z</time>
      </trkpt>
      <trkpt lat="56.847014663821" lon="14.79566366299">
        <ele>168.4</ele>
        <time>2020-03-14T15:31:45Z</time>
      </trkpt>
      <trkpt lat="56.846854318074" lon="14.79551278879">
        <ele>167.8</ele>
        <time>2020-03-14T15:31:51Z</time>
      </trkpt>
      <trkpt lat="56.846658433071" lon="14.795461491562">
        <ele>167.4</ele>
        <time>2020-03-14T15:31:57Z</time>
      </trkpt>
      <trkpt lat="56.846473528357" lon="14.795500048302">
        <ele>169</ele>
        <time>2020-03-14T15:32:02Z</time>
      </trkpt>
      <trkpt lat="56.846280996114" lon="14.795567857873">
        <ele>169</ele>
        <time>2020-03-14T15:32:08Z</time>
      </trkpt>
      <trkpt lat="56.846211342525" lon="14.795517650292">
        <ele>169.4</ele>
        <time>2020-03-14T15:32:11Z</time>
      </trkpt>
      <trkpt lat="56.846044626534" lon="14.795373062517">
        <ele>169.2</ele>
        <time>2020-03-14T15:32:16Z</time>
      </trkpt>
      <trkpt lat="56.84584966354" lon="14.7953275488">
        <ele>169.6</ele>
        <time>2020-03-14T15:32:22Z</time>
      </trkpt>
      <trkpt lat="56.845638355841" lon="14.795370212671">
        <ele>169</ele>
        <time>2020-03-14T15:32:28Z</time>
      </trkpt>
      <trkpt lat="56.845459653733" lon="14.795452690567">
        <ele>170.2</ele>
        <time>2020-03-14T15:32:35Z</time>
      </trkpt>
      <trkpt lat="56.845270390431" lon="14.795482530131">
        <ele>170.2</ele>
        <time>2020-03-14T15:32:42Z</time>
      </trkpt>
      <trkpt lat="56.84513384928" lon="14.795526702744">
        <ele>171.4</ele>
        <time>2020-03-14T15:32:47Z</time>
      </trkpt>
      <trkpt lat="56.84493855101" lon="14.795569031339">
        <ele>171.6</ele>
        <time>2020-03-14T15:32:54Z</time>
      </trkpt>
      <trkpt lat="56.844733529736" lon="14.795662489524">
        <ele>171.8</ele>
        <time>2020-03-14T15:32:59Z</time>
      </trkpt>
      <trkpt lat="56.844542422416" lon="14.795613120133">
        <ele>172</ele>
        <time>2020-03-14T15:33:05Z</time>
      </trkpt>
      <trkpt lat="56.844364977593" lon="14.795492839868">
        <ele>171.2</ele>
        <time>2020-03-14T15:33:12Z</time>
      </trkpt>
      <trkpt lat="56.844338993703" lon="14.795488648918">
        <ele>171.2</ele>
        <time>2020-03-14T15:33:13Z</time>
      </trkpt>
      <trkpt lat="56.844263472784" lon="14.795444476305">
        <ele>170.8</ele>
        <time>2020-03-14T15:33:16Z</time>
      </trkpt>
      <trkpt lat="56.844065659944" lon="14.795382785521">
        <ele>170.6</ele>
        <time>2020-03-14T15:33:22Z</time>
      </trkpt>
      <trkpt lat="56.84388410799" lon="14.795389910136">
        <ele>170.6</ele>
        <time>2020-03-14T15:33:27Z</time>
      </trkpt>
      <trkpt lat="56.843728288469" lon="14.795432406369">
        <ele>171.2</ele>
        <time>2020-03-14T15:33:32Z</time>
      </trkpt>
      <trkpt lat="56.843635836112" lon="14.795412122171">
        <ele>170.6</ele>
        <time>2020-03-14T15:33:35Z</time>
      </trkpt>
      <trkpt lat="56.843420337463" lon="14.795310533543">
        <ele>170.4</ele>
        <time>2020-03-14T15:33:40Z</time>
      </trkpt>
      <trkpt lat="56.843342134336" lon="14.795283292368">
        <ele>170.4</ele>
        <time>2020-03-14T15:33:42Z</time>
      </trkpt>
      <trkpt lat="56.843134347035" lon="14.795264600731">
        <ele>170.4</ele>
        <time>2020-03-14T15:33:47Z</time>
      </trkpt>
      <trkpt lat="56.843070560776" lon="14.79523702428">
        <ele>170.4</ele>
        <time>2020-03-14T15:33:49Z</time>
      </trkpt>
      <trkpt lat="56.842911137038" lon="14.795039546716">
        <ele>169.6</ele>
        <time>2020-03-14T15:33:54Z</time>
      </trkpt>
      <trkpt lat="56.842825725477" lon="14.794706869105">
        <ele>170</ele>
        <time>2020-03-14T15:34:00Z</time>
      </trkpt>
      <trkpt lat="56.842786582004" lon="14.794597652948">
        <ele>169.2</ele>
        <time>2020-03-14T15:34:02Z</time>
      </trkpt>
      <trkpt lat="56.842613328131" lon="14.794289534304">
        <ele>168.8</ele>
        <time>2020-03-14T15:34:08Z</time>
      </trkpt>
      <trkpt lat="56.842464633225" lon="14.794102869391">
        <ele>168.6</ele>
        <time>2020-03-14T15:34:14Z</time>
      </trkpt>
      <trkpt lat="56.842319039622" lon="14.793882676878">
        <ele>168</ele>
        <time>2020-03-14T15:34:19Z</time>
      </trkpt>
      <trkpt lat="56.842248380205" lon="14.79355980609">
        <ele>167.6</ele>
        <time>2020-03-14T15:34:25Z</time>
      </trkpt>
      <trkpt lat="56.842288278049" lon="14.793203240064">
        <ele>167.2</ele>
        <time>2020-03-14T15:34:31Z</time>
      </trkpt>
      <trkpt lat="56.842273609724" lon="14.793015904599">
        <ele>166.8</ele>
        <time>2020-03-14T15:34:34Z</time>
      </trkpt>
      <trkpt lat="56.842142181532" lon="14.792788503652">
        <ele>166.4</ele>
        <time>2020-03-14T15:34:40Z</time>
      </trkpt>
      <trkpt lat="56.841963311786" lon="14.792660344401">
        <ele>166.6</ele>
        <time>2020-03-14T15:34:46Z</time>
      </trkpt>
      <trkpt lat="56.841782681841" lon="14.792575100478">
        <ele>167</ele>
        <time>2020-03-14T15:34:52Z</time>
      </trkpt>
      <trkpt lat="56.841609008873" lon="14.792450629263">
        <ele>166.6</ele>
        <time>2020-03-14T15:34:59Z</time>
      </trkpt>
      <trkpt lat="56.84140893292" lon="14.792363373684">
        <ele>166.4</ele>
        <time>2020-03-14T15:35:05Z</time>
      </trkpt>
      <trkpt lat="56.841205168931" lon="14.792253319337">
        <ele>166.4</ele>
        <time>2020-03-14T15:35:11Z</time>
      </trkpt>
      <trkpt lat="56.841024874262" lon="14.792179726255">
        <ele>166.4</ele>
        <time>2020-03-14T15:35:16Z</time>
      </trkpt>
      <trkpt lat="56.840850949837" lon="14.792063134026">
        <ele>166.2</ele>
        <time>2020-03-14T15:35:22Z</time>
      </trkpt>
      <trkpt lat="56.84065540011" lon="14.791995492093">
        <ele>166</ele>
        <time>2020-03-14T15:35:29Z</time>
      </trkpt>
      <trkpt lat="56.840463789876" lon="14.791840510762">
        <ele>166.8</ele>
        <time>2020-03-14T15:35:35Z</time>
      </trkpt>
      <trkpt lat="56.840276873506" lon="14.791703382878">
        <ele>166.6</ele>
        <time>2020-03-14T15:35:40Z</time>
      </trkpt>
      <trkpt lat="56.840082832521" lon="14.791581090957">
        <ele>167</ele>
        <time>2020-03-14T15:35:46Z</time>
      </trkpt>
      <trkpt lat="56.839974286916" lon="14.79145343462">
        <ele>167.8</ele>
        <time>2020-03-14T15:35:51Z</time>
      </trkpt>
      <trkpt lat="56.839960456781" lon="14.791420074658">
        <ele>168.2</ele>
        <time>2020-03-14T15:35:52Z</time>
      </trkpt>
      <trkpt lat="56.839865154578" lon="14.791123690674">
        <ele>168.6</ele>
        <time>2020-03-14T15:35:59Z</time>
      </trkpt>
      <trkpt lat="56.839827519847" lon="14.790770980322">
        <ele>169</ele>
        <time>2020-03-14T15:36:05Z</time>
      </trkpt>
      <trkpt lat="56.839806229821" lon="14.790575682052">
        <ele>169.2</ele>
        <time>2020-03-14T15:36:09Z</time>
      </trkpt>
      <trkpt lat="56.83974764034" lon="14.790184079684">
        <ele>168.6</ele>
        <time>2020-03-14T15:36:16Z</time>
      </trkpt>
      <trkpt lat="56.839707826315" lon="14.790071426948">
        <ele>168.2</ele>
        <time>2020-03-14T15:36:18Z</time>
      </trkpt>
      <trkpt lat="56.839625432238" lon="14.789715531474">
        <ele>167.4</ele>
        <time>2020-03-14T15:36:23Z</time>
      </trkpt>
      <trkpt lat="56.839589976801" lon="14.789618385253">
        <ele>167</ele>
        <time>2020-03-14T15:36:25Z</time>
      </trkpt>
      <trkpt lat="56.839548905491" lon="14.789483771939">
        <ele>166.8</ele>
        <time>2020-03-14T15:36:28Z</time>
      </trkpt>
      <trkpt lat="56.839397444558" lon="14.789291072058">
        <ele>166.4</ele>
        <time>2020-03-14T15:36:36Z</time>
      </trkpt>
      <trkpt lat="56.839358217266" lon="14.789206498687">
        <ele>165.8</ele>
        <time>2020-03-14T15:36:38Z</time>
      </trkpt>
      <trkpt lat="56.839197284786" lon="14.789017989756">
        <ele>165.4</ele>
        <time>2020-03-14T15:36:44Z</time>
      </trkpt>
      <trkpt lat="56.839101144393" lon="14.788934841308">
        <ele>164.8</ele>
        <time>2020-03-14T15:36:47Z</time>
      </trkpt>
      <trkpt lat="56.838901571354" lon="14.788863092244">
        <ele>165.4</ele>
        <time>2020-03-14T15:36:54Z</time>
      </trkpt>
      <trkpt lat="56.838694538424" lon="14.788882622071">
        <ele>164.8</ele>
        <time>2020-03-14T15:37:01Z</time>
      </trkpt>
      <trkpt lat="56.838532181021" lon="14.788752870259">
        <ele>164.8</ele>
        <time>2020-03-14T15:37:07Z</time>
      </trkpt>
      <trkpt lat="56.838509801348" lon="14.788407033065">
        <ele>165.2</ele>
        <time>2020-03-14T15:37:15Z</time>
      </trkpt>
      <trkpt lat="56.838594123262" lon="14.788114756212">
        <ele>165.2</ele>
        <time>2020-03-14T15:37:22Z</time>
      </trkpt>
      <trkpt lat="56.838657574245" lon="14.787777300918">
        <ele>165</ele>
        <time>2020-03-14T15:37:28Z</time>
      </trkpt>
      <trkpt lat="56.83868397723" lon="14.787436325226">
        <ele>164.8</ele>
        <time>2020-03-14T15:37:33Z</time>
      </trkpt>
      <trkpt lat="56.838724880902" lon="14.787110604592">
        <ele>165.2</ele>
        <time>2020-03-14T15:37:38Z</time>
      </trkpt>
      <trkpt lat="56.838785482039" lon="14.78672352845">
        <ele>165.2</ele>
        <time>2020-03-14T15:37:45Z</time>
      </trkpt>
      <trkpt lat="56.838890842522" lon="14.78643854385">
        <ele>165.4</ele>
        <time>2020-03-14T15:37:52Z</time>
      </trkpt>
      <trkpt lat="56.838961166663" lon="14.786267636909">
        <ele>165.4</ele>
        <time>2020-03-14T15:37:57Z</time>
      </trkpt>
      <trkpt lat="56.838922107009" lon="14.785921799715">
        <ele>164.2</ele>
        <time>2020-03-14T15:38:05Z</time>
      </trkpt>
      <trkpt lat="56.83901925323" lon="14.785567580621">
        <ele>164.2</ele>
        <time>2020-03-14T15:38:12Z</time>
      </trkpt>
      <trkpt lat="56.839004920181" lon="14.785311597395">
        <ele>165.8</ele>
        <time>2020-03-14T15:38:16Z</time>
      </trkpt>
      <trkpt lat="56.838991425322" lon="14.785242698177">
        <ele>166.6</ele>
        <time>2020-03-14T15:38:17Z</time>
      </trkpt>
      <trkpt lat="56.838975499712" lon="14.785199615211">
        <ele>167</ele>
        <time>2020-03-14T15:38:18Z</time>
      </trkpt>
      <trkpt lat="56.838919089525" lon="14.784869284532">
        <ele>167.4</ele>
        <time>2020-03-14T15:38:24Z</time>
      </trkpt>
      <trkpt lat="56.83878456003" lon="14.78459787861">
        <ele>168</ele>
        <time>2020-03-14T15:38:31Z</time>
      </trkpt>
      <trkpt lat="56.838720689952" lon="14.784268386121">
        <ele>167.2</ele>
        <time>2020-03-14T15:38:38Z</time>
      </trkpt>
      <trkpt lat="56.838664950317" lon="14.78391475376">
        <ele>166</ele>
        <time>2020-03-14T15:38:45Z</time>
      </trkpt>
      <trkpt lat="56.838636787133" lon="14.783876867572">
        <ele>165.8</ele>
        <time>2020-03-14T15:38:46Z</time>
      </trkpt>
      <trkpt lat="56.838605690284" lon="14.78385691865">
        <ele>165.6</ele>
        <time>2020-03-14T15:38:47Z</time>
      </trkpt>
      <trkpt lat="56.838423635416" lon="14.783829593656">
        <ele>165.8</ele>
        <time>2020-03-14T15:38:52Z</time>
      </trkpt>
      <trkpt lat="56.838240826177" lon="14.783761867904">
        <ele>166</ele>
        <time>2020-03-14T15:39:00Z</time>
      </trkpt>
      <trkpt lat="56.838036307817" lon="14.783762286999">
        <ele>165.6</ele>
        <time>2020-03-14T15:39:07Z</time>
      </trkpt>
      <trkpt lat="56.837841093366" lon="14.783794222038">
        <ele>166.2</ele>
        <time>2020-03-14T15:39:14Z</time>
      </trkpt>
      <trkpt lat="56.837650237503" lon="14.783839651936">
        <ele>166</ele>
        <time>2020-03-14T15:39:20Z</time>
      </trkpt>
      <trkpt lat="56.837448317532" lon="14.783950209197">
        <ele>165.8</ele>
        <time>2020-03-14T15:39:26Z</time>
      </trkpt>
      <trkpt lat="56.837259976239" lon="14.783958842554">
        <ele>166</ele>
        <time>2020-03-14T15:39:31Z</time>
      </trkpt>
      <trkpt lat="56.837085800357" lon="14.783841076859">
        <ele>166.2</ele>
        <time>2020-03-14T15:39:38Z</time>
      </trkpt>
      <trkpt lat="56.836956132364" lon="14.783709564848">
        <ele>166.8</ele>
        <time>2020-03-14T15:39:44Z</time>
      </trkpt>
      <trkpt lat="56.836784806328" lon="14.783567826919">
        <ele>166</ele>
        <time>2020-03-14T15:39:51Z</time>
      </trkpt>
      <trkpt lat="56.836767707252" lon="14.783556511354">
        <ele>166</ele>
        <time>2020-03-14T15:39:53Z</time>
      </trkpt>
      <trkpt lat="56.836569559136" lon="14.783575705905">
        <ele>165.8</ele>
        <time>2020-03-14T15:40:00Z</time>
      </trkpt>
      <trkpt lat="56.836391862856" lon="14.783625997305">
        <ele>166</ele>
        <time>2020-03-14T15:40:04Z</time>
      </trkpt>
      <trkpt lat="56.836191116351" lon="14.783701350586">
        <ele>165.8</ele>
        <time>2020-03-14T15:40:10Z</time>
      </trkpt>
      <trkpt lat="56.836007217465" lon="14.783888602232">
        <ele>165.2</ele>
        <time>2020-03-14T15:40:16Z</time>
      </trkpt>
      <trkpt lat="56.835834801782" lon="14.784063281028">
        <ele>165.2</ele>
        <time>2020-03-14T15:40:21Z</time>
      </trkpt>
      <trkpt lat="56.835696919527" lon="14.78428104279">
        <ele>165.2</ele>
        <time>2020-03-14T15:40:26Z</time>
      </trkpt>
      <trkpt lat="56.835567167715" lon="14.78458027662">
        <ele>164.8</ele>
        <time>2020-03-14T15:40:32Z</time>
      </trkpt>
      <trkpt lat="56.835498268497" lon="14.784791751957">
        <ele>164.8</ele>
        <time>2020-03-14T15:40:36Z</time>
      </trkpt>
      <trkpt lat="56.835413611307" lon="14.785039772378">
        <ele>165</ele>
        <time>2020-03-14T15:40:41Z</time>
      </trkpt>
      <trkpt lat="56.835224683281" lon="14.785077910023">
        <ele>164.6</ele>
        <time>2020-03-14T15:40:48Z</time>
      </trkpt>
      <trkpt lat="56.835058470204" lon="14.784938938121">
        <ele>164.4</ele>
        <time>2020-03-14T15:40:56Z</time>
      </trkpt>
      <trkpt lat="56.834924275985" lon="14.784690247148">
        <ele>164.4</ele>
        <time>2020-03-14T15:41:04Z</time>
      </trkpt>
      <trkpt lat="56.834767618274" lon="14.784499391285">
        <ele>164.6</ele>
        <time>2020-03-14T15:41:11Z</time>
      </trkpt>
      <trkpt lat="56.834563183733" lon="14.784592765651">
        <ele>164.6</ele>
        <time>2020-03-14T15:41:17Z</time>
      </trkpt>
      <trkpt lat="56.834409040592" lon="14.784681278515">
        <ele>165.2</ele>
        <time>2020-03-14T15:41:22Z</time>
      </trkpt>
      <trkpt lat="56.834239474755" lon="14.784800804409">
        <ele>165.2</ele>
        <time>2020-03-14T15:41:28Z</time>
      </trkpt>
      <trkpt lat="56.834140400697" lon="14.784751937932">
        <ele>166</ele>
        <time>2020-03-14T15:41:32Z</time>
      </trkpt>
      <trkpt lat="56.83406638852" lon="14.784634004599">
        <ele>167</ele>
        <time>2020-03-14T15:41:36Z</time>
      </trkpt>
      <trkpt lat="56.834025149572" lon="14.784561333526">
        <ele>168</ele>
        <time>2020-03-14T15:41:38Z</time>
      </trkpt>
      <trkpt lat="56.833921297831" lon="14.784329909267">
        <ele>169</ele>
        <time>2020-03-14T15:41:44Z</time>
      </trkpt>
      <trkpt lat="56.833855919011" lon="14.784107202184">
        <ele>169.8</ele>
        <time>2020-03-14T15:41:49Z</time>
      </trkpt>
      <trkpt lat="56.833815099158" lon="14.783972253594">
        <ele>170.2</ele>
        <time>2020-03-14T15:41:52Z</time>
      </trkpt>
      <trkpt lat="56.833779978997" lon="14.783828839285">
        <ele>171.2</ele>
        <time>2020-03-14T15:41:55Z</time>
      </trkpt>
      <trkpt lat="56.833762544645" lon="14.783464478092">
        <ele>171.8</ele>
        <time>2020-03-14T15:42:03Z</time>
      </trkpt>
      <trkpt lat="56.833824319248" lon="14.783114869043">
        <ele>172</ele>
        <time>2020-03-14T15:42:11Z</time>
      </trkpt>
      <trkpt lat="56.833895146303" lon="14.782788310219">
        <ele>172.2</ele>
        <time>2020-03-14T15:42:17Z</time>
      </trkpt>
      <trkpt lat="56.83396496753" lon="14.78245211221">
        <ele>172</ele>
        <time>2020-03-14T15:42:22Z</time>
      </trkpt>
      <trkpt lat="56.834056246421" lon="14.782041734386">
        <ele>171.6</ele>
        <time>2020-03-14T15:42:28Z</time>
      </trkpt>
      <trkpt lat="56.83412170906" lon="14.781734034837">
        <ele>170.6</ele>
        <time>2020-03-14T15:42:34Z</time>
      </trkpt>
      <trkpt lat="56.834136712661" lon="14.781673014605">
        <ele>170.2</ele>
        <time>2020-03-14T15:42:35Z</time>
      </trkpt>
      <trkpt lat="56.834189853907" lon="14.781492887574">
        <ele>169</ele>
        <time>2020-03-14T15:42:39Z</time>
      </trkpt>
      <trkpt lat="56.83426420136" lon="14.781296415838">
        <ele>167.8</ele>
        <time>2020-03-14T15:42:44Z</time>
      </trkpt>
      <trkpt lat="56.834298986245" lon="14.78115627047">
        <ele>167.2</ele>
        <time>2020-03-14T15:42:47Z</time>
      </trkpt>
      <trkpt lat="56.834239139479" lon="14.780600885776">
        <ele>167.2</ele>
        <time>2020-03-14T15:43:11Z</time>
      </trkpt>
      <trkpt lat="56.834291274897" lon="14.780275835694">
        <ele>167.6</ele>
        <time>2020-03-14T15:43:16Z</time>
      </trkpt>
      <trkpt lat="56.834357072812" lon="14.779952042897">
        <ele>167.8</ele>
        <time>2020-03-14T15:43:22Z</time>
      </trkpt>
      <trkpt lat="56.834416081388" lon="14.779604110228">
        <ele>168.4</ele>
        <time>2020-03-14T15:43:28Z</time>
      </trkpt>
      <trkpt lat="56.834416081388" lon="14.779604110228">
        <ele>169</ele>
        <time>2020-03-14T15:43:29Z</time>
      </trkpt>
      <trkpt lat="56.834447681151" lon="14.779254920274">
        <ele>169.4</ele>
        <time>2020-03-14T15:43:34Z</time>
      </trkpt>
      <trkpt lat="56.834476347249" lon="14.778871699806">
        <ele>169.2</ele>
        <time>2020-03-14T15:43:41Z</time>
      </trkpt>
      <trkpt lat="56.834568212873" lon="14.778544973344">
        <ele>168.8</ele>
        <time>2020-03-14T15:43:48Z</time>
      </trkpt>
      <trkpt lat="56.834707687689" lon="14.778342047545">
        <ele>168.8</ele>
        <time>2020-03-14T15:43:55Z</time>
      </trkpt>
      <trkpt lat="56.834601321378" lon="14.7785302212">
        <ele>168.6</ele>
        <time>2020-03-14T15:44:31Z</time>
      </trkpt>
      <trkpt lat="56.834708022965" lon="14.778384459959">
        <ele>168.8</ele>
        <time>2020-03-14T15:44:36Z</time>
      </trkpt>
      <trkpt lat="56.834877085888" lon="14.778152029872">
        <ele>169.6</ele>
        <time>2020-03-14T15:44:43Z</time>
      </trkpt>
      <trkpt lat="56.835032905409" lon="14.77788146214">
        <ele>168.4</ele>
        <time>2020-03-14T15:44:49Z</time>
      </trkpt>
      <trkpt lat="56.83516106466" lon="14.777637213574">
        <ele>168.2</ele>
        <time>2020-03-14T15:44:54Z</time>
      </trkpt>
      <trkpt lat="56.835187635283" lon="14.777595555531">
        <ele>167.8</ele>
        <time>2020-03-14T15:44:55Z</time>
      </trkpt>
      <trkpt lat="56.83533456999" lon="14.777340578133">
        <ele>167.6</ele>
        <time>2020-03-14T15:45:01Z</time>
      </trkpt>
      <trkpt lat="56.835510506071" lon="14.777199762213">
        <ele>167.4</ele>
        <time>2020-03-14T15:45:08Z</time>
      </trkpt>
      <trkpt lat="56.835790880626" lon="14.777191380313">
        <ele>166.8</ele>
        <time>2020-03-14T15:45:15Z</time>
      </trkpt>
      <trkpt lat="56.836010486406" lon="14.777361868159">
        <ele>166.6</ele>
        <time>2020-03-14T15:45:22Z</time>
      </trkpt>
      <trkpt lat="56.8361048666" lon="14.777496146197">
        <ele>166.2</ele>
        <time>2020-03-14T15:45:28Z</time>
      </trkpt>
      <trkpt lat="56.836193630921" lon="14.777466306633">
        <ele>165.6</ele>
        <time>2020-03-14T15:45:31Z</time>
      </trkpt>
      <trkpt lat="56.836386917535" lon="14.777310151836">
        <ele>166</ele>
        <time>2020-03-14T15:45:37Z</time>
      </trkpt>
      <trkpt lat="56.836550196947" lon="14.777084930183">
        <ele>166</ele>
        <time>2020-03-14T15:45:43Z</time>
      </trkpt>
      <trkpt lat="56.83673937643" lon="14.776920812581">
        <ele>165.2</ele>
        <time>2020-03-14T15:45:49Z</time>
      </trkpt>
      <trkpt lat="56.836896872331" lon="14.776832802631">
        <ele>164.6</ele>
        <time>2020-03-14T15:45:54Z</time>
      </trkpt>
      <trkpt lat="56.837078256647" lon="14.776719311705">
        <ele>164.4</ele>
        <time>2020-03-14T15:45:59Z</time>
      </trkpt>
      <trkpt lat="56.837239524403" lon="14.776536921561">
        <ele>164.2</ele>
        <time>2020-03-14T15:46:04Z</time>
      </trkpt>
      <trkpt lat="56.837401127435" lon="14.776329050441">
        <ele>164</ele>
        <time>2020-03-14T15:46:11Z</time>
      </trkpt>
      <trkpt lat="56.837559629164" lon="14.776131153782">
        <ele>164.6</ele>
        <time>2020-03-14T15:46:18Z</time>
      </trkpt>
      <trkpt lat="56.837589468728" lon="14.776057476881">
        <ele>164.6</ele>
        <time>2020-03-14T15:46:20Z</time>
      </trkpt>
      <trkpt lat="56.837622744871" lon="14.77574240126">
        <ele>164.4</ele>
        <time>2020-03-14T15:46:26Z</time>
      </trkpt>
      <trkpt lat="56.837561892277" lon="14.775405281242">
        <ele>164.6</ele>
        <time>2020-03-14T15:46:32Z</time>
      </trkpt>
      <trkpt lat="56.837504308624" lon="14.775083164825">
        <ele>164.8</ele>
        <time>2020-03-14T15:46:37Z</time>
      </trkpt>
      <trkpt lat="56.837567927245" lon="14.774722994582">
        <ele>165.2</ele>
        <time>2020-03-14T15:46:43Z</time>
      </trkpt>
      <trkpt lat="56.837710168088" lon="14.774470783211">
        <ele>164.8</ele>
        <time>2020-03-14T15:46:50Z</time>
      </trkpt>
      <trkpt lat="56.83778208479" lon="14.774118408135">
        <ele>164.8</ele>
        <time>2020-03-14T15:46:57Z</time>
      </trkpt>
      <trkpt lat="56.837753837787" lon="14.773757148245">
        <ele>164.4</ele>
        <time>2020-03-14T15:47:03Z</time>
      </trkpt>
      <trkpt lat="56.837682843094" lon="14.773434528914">
        <ele>164.8</ele>
        <time>2020-03-14T15:47:09Z</time>
      </trkpt>
      <trkpt lat="56.837613189505" lon="14.773117022542">
        <ele>165.2</ele>
        <time>2020-03-14T15:47:13Z</time>
      </trkpt>
      <trkpt lat="56.837584774864" lon="14.773004956539">
        <ele>165.4</ele>
        <time>2020-03-14T15:47:16Z</time>
      </trkpt>
      <trkpt lat="56.837469859015" lon="14.772702705225">
        <ele>165.8</ele>
        <time>2020-03-14T15:47:23Z</time>
      </trkpt>
      <trkpt lat="56.837396936485" lon="14.772426605439">
        <ele>165.2</ele>
        <time>2020-03-14T15:47:29Z</time>
      </trkpt>
      <trkpt lat="56.837467344445" lon="14.772065010273">
        <ele>165.2</ele>
        <time>2020-03-14T15:47:35Z</time>
      </trkpt>
      <trkpt lat="56.837469104644" lon="14.771917069738">
        <ele>164.8</ele>
        <time>2020-03-14T15:47:38Z</time>
      </trkpt>
      <trkpt lat="56.837419232339" lon="14.771581374643">
        <ele>165.2</ele>
        <time>2020-03-14T15:47:46Z</time>
      </trkpt>
      <trkpt lat="56.837327534353" lon="14.771179211081">
        <ele>165</ele>
        <time>2020-03-14T15:47:53Z</time>
      </trkpt>
      <trkpt lat="56.837274560745" lon="14.770831865145">
        <ele>165</ele>
        <time>2020-03-14T15:47:59Z</time>
      </trkpt>
      <trkpt lat="56.837287720328" lon="14.77049868462">
        <ele>164.8</ele>
        <time>2020-03-14T15:48:06Z</time>
      </trkpt>
      <trkpt lat="56.837391572069" lon="14.770224428852">
        <ele>164.6</ele>
        <time>2020-03-14T15:48:10Z</time>
      </trkpt>
      <trkpt lat="56.837518474035" lon="14.770040110871">
        <ele>165</ele>
        <time>2020-03-14T15:48:16Z</time>
      </trkpt>
      <trkpt lat="56.837659960507" lon="14.769701649749">
        <ele>165.6</ele>
        <time>2020-03-14T15:48:24Z</time>
      </trkpt>
      <trkpt lat="56.837700193627" lon="14.769622440794">
        <ele>165.8</ele>
        <time>2020-03-14T15:48:26Z</time>
      </trkpt>
      <trkpt lat="56.837867663989" lon="14.769361344609">
        <ele>166.8</ele>
        <time>2020-03-14T15:48:33Z</time>
      </trkpt>
      <trkpt lat="56.838027255365" lon="14.769197394645">
        <ele>167.4</ele>
        <time>2020-03-14T15:48:40Z</time>
      </trkpt>
      <trkpt lat="56.838121216464" lon="14.769069989765">
        <ele>167.8</ele>
        <time>2020-03-14T15:48:44Z</time>
      </trkpt>
      <trkpt lat="56.838265888058" lon="14.768810150865">
        <ele>168.4</ele>
        <time>2020-03-14T15:48:50Z</time>
      </trkpt>
      <trkpt lat="56.838382312649" lon="14.768657432647">
        <ele>168.8</ele>
        <time>2020-03-14T15:48:55Z</time>
      </trkpt>
      <trkpt lat="56.838537713075" lon="14.768443107464">
        <ele>169.8</ele>
        <time>2020-03-14T15:49:03Z</time>
      </trkpt>
      <trkpt lat="56.838605522646" lon="14.768376722816">
        <ele>170</ele>
        <time>2020-03-14T15:49:07Z</time>
      </trkpt>
      <trkpt lat="56.838779027976" lon="14.768197769251">
        <ele>170.8</ele>
        <time>2020-03-14T15:49:12Z</time>
      </trkpt>
      <trkpt lat="56.838802832572" lon="14.76817606013">
        <ele>171</ele>
        <time>2020-03-14T15:49:14Z</time>
      </trkpt>
      <trkpt lat="56.838966531079" lon="14.768012696899">
        <ele>172</ele>
        <time>2020-03-14T15:49:21Z</time>
      </trkpt>
      <trkpt lat="56.839007350932" lon="14.767977325281">
        <ele>172.2</ele>
        <time>2020-03-14T15:49:22Z</time>
      </trkpt>
      <trkpt lat="56.839172474362" lon="14.76786341526">
        <ele>173.4</ele>
        <time>2020-03-14T15:49:28Z</time>
      </trkpt>
      <trkpt lat="56.839270374954" lon="14.767776411138">
        <ele>174.6</ele>
        <time>2020-03-14T15:49:32Z</time>
      </trkpt>
      <trkpt lat="56.83934195638" lon="14.767737854398">
        <ele>175.8</ele>
        <time>2020-03-14T15:49:35Z</time>
      </trkpt>
      <trkpt lat="56.839410185046" lon="14.767692173043">
        <ele>176.8</ele>
        <time>2020-03-14T15:49:38Z</time>
      </trkpt>
      <trkpt lat="56.839557622667" lon="14.767601564704">
        <ele>178</ele>
        <time>2020-03-14T15:49:44Z</time>
      </trkpt>
      <trkpt lat="56.839732217644" lon="14.767490001615">
        <ele>179.2</ele>
        <time>2020-03-14T15:49:51Z</time>
      </trkpt>
      <trkpt lat="56.839880409636" lon="14.767377684155">
        <ele>179.8</ele>
        <time>2020-03-14T15:49:58Z</time>
      </trkpt>
      <trkpt lat="56.845855027956" lon="14.764654321026">
        <ele>169.2</ele>
        <time>2020-03-14T15:58:18Z</time>
      </trkpt>
      <trkpt lat="56.845938260223" lon="14.764662535288">
        <ele>168.2</ele>
        <time>2020-03-14T15:58:22Z</time>
      </trkpt>
      <trkpt lat="56.84614135366" lon="14.764582152867">
        <ele>168.6</ele>
        <time>2020-03-14T15:58:30Z</time>
      </trkpt>
      <trkpt lat="56.84630731528" lon="14.7644067197">
        <ele>169</ele>
        <time>2020-03-14T15:58:37Z</time>
      </trkpt>
      <trkpt lat="56.846410664107" lon="14.764088291319">
        <ele>168.4</ele>
        <time>2020-03-14T15:58:44Z</time>
      </trkpt>
      <trkpt lat="56.846403455673" lon="14.763756200441">
        <ele>168.8</ele>
        <time>2020-03-14T15:58:50Z</time>
      </trkpt>
      <trkpt lat="56.846472606348" lon="14.763490913306">
        <ele>168.4</ele>
        <time>2020-03-14T15:58:56Z</time>
      </trkpt>
      <trkpt lat="56.846666814971" lon="14.763437520603">
        <ele>168.4</ele>
        <time>2020-03-14T15:59:04Z</time>
      </trkpt>
      <trkpt lat="56.846871249512" lon="14.763424277201">
        <ele>168.2</ele>
        <time>2020-03-14T15:59:12Z</time>
      </trkpt>
      <trkpt lat="56.847063111203" lon="14.763476496438">
        <ele>168.6</ele>
        <time>2020-03-14T15:59:20Z</time>
      </trkpt>
      <trkpt lat="56.847240639845" lon="14.763619743109">
        <ele>168</ele>
        <time>2020-03-14T15:59:29Z</time>
      </trkpt>
      <trkpt lat="56.847431579527" lon="14.763666681749">
        <ele>168.6</ele>
        <time>2020-03-14T15:59:35Z</time>
      </trkpt>
      <trkpt lat="56.847603827572" lon="14.763530894969">
        <ele>168.4</ele>
        <time>2020-03-14T15:59:41Z</time>
      </trkpt>
      <trkpt lat="56.847690747875" lon="14.763211041665">
        <ele>169.2</ele>
        <time>2020-03-14T15:59:47Z</time>
      </trkpt>
      <trkpt lat="56.847690747875" lon="14.763211041665">
        <ele>169.4</ele>
        <time>2020-03-14T15:59:48Z</time>
      </trkpt>
      <trkpt lat="56.847717821412" lon="14.762875095113">
        <ele>169.8</ele>
        <time>2020-03-14T15:59:53Z</time>
      </trkpt>
      <trkpt lat="56.847749588813" lon="14.762717934488">
        <ele>170.6</ele>
        <time>2020-03-14T15:59:58Z</time>
      </trkpt>
      <trkpt lat="56.847911359483" lon="14.762652723306">
        <ele>171.8</ele>
        <time>2020-03-14T16:00:05Z</time>
      </trkpt>
      <trkpt lat="56.848053013593" lon="14.762410821672">
        <ele>172.8</ele>
        <time>2020-03-14T16:00:14Z</time>
      </trkpt>
      <trkpt lat="56.848067933375" lon="14.762365140317">
        <ele>172.8</ele>
        <time>2020-03-14T16:00:15Z</time>
      </trkpt>
      <trkpt lat="56.848145382131" lon="14.762212170642">
        <ele>172.2</ele>
        <time>2020-03-14T16:00:19Z</time>
      </trkpt>
      <trkpt lat="56.848171533659" lon="14.762202615276">
        <ele>171.6</ele>
        <time>2020-03-14T16:00:20Z</time>
      </trkpt>
      <trkpt lat="56.848376554933" lon="14.762227844795">
        <ele>171.4</ele>
        <time>2020-03-14T16:00:28Z</time>
      </trkpt>
      <trkpt lat="56.848567326977" lon="14.762129860384">
        <ele>171.2</ele>
        <time>2020-03-14T16:00:36Z</time>
      </trkpt>
      <trkpt lat="56.848758518116" lon="14.761989798835">
        <ele>171</ele>
        <time>2020-03-14T16:00:44Z</time>
      </trkpt>
      <trkpt lat="56.848956079499" lon="14.761923498006">
        <ele>171.4</ele>
        <time>2020-03-14T16:00:51Z</time>
      </trkpt>
      <trkpt lat="56.849144085516" lon="14.761861388127">
        <ele>171.2</ele>
        <time>2020-03-14T16:00:58Z</time>
      </trkpt>
      <trkpt lat="56.849334270827" lon="14.761780167516">
        <ele>171.6</ele>
        <time>2020-03-14T16:01:05Z</time>
      </trkpt>
      <trkpt lat="56.849504339578" lon="14.761726271899">
        <ele>170.6</ele>
        <time>2020-03-14T16:01:11Z</time>
      </trkpt>
      <trkpt lat="56.849699805486" lon="14.761734821437">
        <ele>170.4</ele>
        <time>2020-03-14T16:01:19Z</time>
      </trkpt>
      <trkpt lat="56.849907508968" lon="14.761745717907">
        <ele>170.6</ele>
        <time>2020-03-14T16:01:27Z</time>
      </trkpt>
      <trkpt lat="56.850099789754" lon="14.761743203337">
        <ele>170.6</ele>
        <time>2020-03-14T16:01:33Z</time>
      </trkpt>
      <trkpt lat="56.850288047228" lon="14.761625270004">
        <ele>170.2</ele>
        <time>2020-03-14T16:01:40Z</time>
      </trkpt>
      <trkpt lat="56.850458702712" lon="14.761770947426">
        <ele>169.6</ele>
        <time>2020-03-14T16:01:46Z</time>
      </trkpt>
      <trkpt lat="56.850487284991" lon="14.761788046502">
        <ele>169.4</ele>
        <time>2020-03-14T16:01:47Z</time>
      </trkpt>
      <trkpt lat="56.850666992927" lon="14.76183263821">
        <ele>169.2</ele>
        <time>2020-03-14T16:01:53Z</time>
      </trkpt>
      <trkpt lat="56.850801270965" lon="14.761848144725">
        <ele>168.4</ele>
        <time>2020-03-14T16:01:58Z</time>
      </trkpt>
      <trkpt lat="56.851006795153" lon="14.761873122787">
        <ele>168.8</ele>
        <time>2020-03-14T16:02:06Z</time>
      </trkpt>
      <trkpt lat="56.851186083994" lon="14.761900028686">
        <ele>168.2</ele>
        <time>2020-03-14T16:02:12Z</time>
      </trkpt>
      <trkpt lat="56.851381633721" lon="14.761978315632">
        <ele>168.2</ele>
        <time>2020-03-14T16:02:19Z</time>
      </trkpt>
      <trkpt lat="56.851569639738" lon="14.762016956191">
        <ele>168</ele>
        <time>2020-03-14T16:02:26Z</time>
      </trkpt>
      <trkpt lat="56.851775834478" lon="14.762042856262">
        <ele>168.2</ele>
        <time>2020-03-14T16:02:33Z</time>
      </trkpt>
      <trkpt lat="56.851977000078" lon="14.762052411628">
        <ele>168.4</ele>
        <time>2020-03-14T16:02:40Z</time>
      </trkpt>
      <trkpt lat="56.852181853714" lon="14.76206062589">
        <ele>168.4</ele>
        <time>2020-03-14T16:02:48Z</time>
      </trkpt>
      <trkpt lat="56.852365920238" lon="14.762072444369">
        <ele>168.4</ele>
        <time>2020-03-14T16:02:54Z</time>
      </trkpt>
      <trkpt lat="56.852567169657" lon="14.762046879574">
        <ele>168.4</ele>
        <time>2020-03-14T16:03:00Z</time>
      </trkpt>
      <trkpt lat="56.852753499294" lon="14.761991475215">
        <ele>167.4</ele>
        <time>2020-03-14T16:03:06Z</time>
      </trkpt>
      <trkpt lat="56.852781830116" lon="14.761987535722">
        <ele>167.2</ele>
        <time>2020-03-14T16:03:07Z</time>
      </trkpt>
      <trkpt lat="56.85287201936" lon="14.76205308218">
        <ele>167.2</ele>
        <time>2020-03-14T16:03:11Z</time>
      </trkpt>
      <trkpt lat="56.85283765357" lon="14.762374192769">
        <ele>167</ele>
        <time>2020-03-14T16:03:17Z</time>
      </trkpt>
      <trkpt lat="56.852789206188" lon="14.762726651664">
        <ele>167</ele>
        <time>2020-03-14T16:03:24Z</time>
      </trkpt>
      <trkpt lat="56.852752325828" lon="14.763086905726">
        <ele>167.4</ele>
        <time>2020-03-14T16:03:32Z</time>
      </trkpt>
      <trkpt lat="56.852758612253" lon="14.763413045455">
        <ele>168.2</ele>
        <time>2020-03-14T16:03:39Z</time>
      </trkpt>
      <trkpt lat="56.852779986098" lon="14.763493176419">
        <ele>168.2</ele>
        <time>2020-03-14T16:03:41Z</time>
      </trkpt>
      <trkpt lat="56.85284016814" lon="14.763836666681">
        <ele>169</ele>
        <time>2020-03-14T16:03:49Z</time>
      </trkpt>
      <trkpt lat="56.852849052954" lon="14.76392727502">
        <ele>169.4</ele>
        <time>2020-03-14T16:03:51Z</time>
      </trkpt>
      <trkpt lat="56.85288123945" lon="14.764295156611">
        <ele>169.4</ele>
        <time>2020-03-14T16:03:58Z</time>
      </trkpt>
      <trkpt lat="56.852864894745" lon="14.764630767887">
        <ele>168.8</ele>
        <time>2020-03-14T16:04:04Z</time>
      </trkpt>
      <trkpt lat="56.852860452338" lon="14.764750964333">
        <ele>168.4</ele>
        <time>2020-03-14T16:04:06Z</time>
      </trkpt>
      <trkpt lat="56.852844610547" lon="14.765104512875">
        <ele>167.6</ele>
        <time>2020-03-14T16:04:12Z</time>
      </trkpt>
      <trkpt lat="56.852844526728" lon="14.765160671605">
        <ele>167.2</ele>
        <time>2020-03-14T16:04:13Z</time>
      </trkpt>
      <trkpt lat="56.852880568898" lon="14.765545568453">
        <ele>166.4</ele>
        <time>2020-03-14T16:04:20Z</time>
      </trkpt>
      <trkpt lat="56.852944187519" lon="14.765777244169">
        <ele>166.2</ele>
        <time>2020-03-14T16:04:25Z</time>
      </trkpt>
      <trkpt lat="56.853104952361" lon="14.76594647473">
        <ele>165.4</ele>
        <time>2020-03-14T16:04:34Z</time>
      </trkpt>
      <trkpt lat="56.853302597563" lon="14.765976146656">
        <ele>165.4</ele>
        <time>2020-03-14T16:04:42Z</time>
      </trkpt>
      <trkpt lat="56.853481802585" lon="14.766035071413">
        <ele>165.6</ele>
        <time>2020-03-14T16:04:49Z</time>
      </trkpt>
      <trkpt lat="56.853647931843" lon="14.766182173758">
        <ele>165.8</ele>
        <time>2020-03-14T16:04:55Z</time>
      </trkpt>
      <trkpt lat="56.853815150748" lon="14.766361965513">
        <ele>166</ele>
        <time>2020-03-14T16:05:03Z</time>
      </trkpt>
      <trkpt lat="56.853944399646" lon="14.76645106511">
        <ele>166.6</ele>
        <time>2020-03-14T16:05:07Z</time>
      </trkpt>
      <trkpt lat="56.854126957428" lon="14.766611075581">
        <ele>166.8</ele>
        <time>2020-03-14T16:05:15Z</time>
      </trkpt>
      <trkpt lat="56.854257798887" lon="14.766713083304">
        <ele>167.2</ele>
        <time>2020-03-14T16:05:21Z</time>
      </trkpt>
      <trkpt lat="56.854425101611" lon="14.766882146227">
        <ele>167.6</ele>
        <time>2020-03-14T16:05:29Z</time>
      </trkpt>
      <trkpt lat="56.854610593058" lon="14.766956074585">
        <ele>167</ele>
        <time>2020-03-14T16:05:36Z</time>
      </trkpt>
      <trkpt lat="56.854799185808" lon="14.767025895812">
        <ele>167.2</ele>
        <time>2020-03-14T16:05:44Z</time>
      </trkpt>
      <trkpt lat="56.855015690285" lon="14.767055651557">
        <ele>167</ele>
        <time>2020-03-14T16:05:52Z</time>
      </trkpt>
      <trkpt lat="56.855202606655" lon="14.767144080602">
        <ele>166.8</ele>
        <time>2020-03-14T16:05:59Z</time>
      </trkpt>
      <trkpt lat="56.855277289384" lon="14.767171657053">
        <ele>166.8</ele>
        <time>2020-03-14T16:06:01Z</time>
      </trkpt>
      <trkpt lat="56.855478622622" lon="14.767204933196">
        <ele>166.4</ele>
        <time>2020-03-14T16:06:08Z</time>
      </trkpt>
      <trkpt lat="56.855669143209" lon="14.767244579583">
        <ele>166.8</ele>
        <time>2020-03-14T16:06:15Z</time>
      </trkpt>
      <trkpt lat="56.855879947994" lon="14.76727249131">
        <ele>166.8</ele>
        <time>2020-03-14T16:06:20Z</time>
      </trkpt>
      <trkpt lat="56.856073737522" lon="14.767232677285">
        <ele>166.6</ele>
        <time>2020-03-14T16:06:26Z</time>
      </trkpt>
      <trkpt lat="56.856149174622" lon="14.767200071694">
        <ele>166.6</ele>
        <time>2020-03-14T16:06:29Z</time>
      </trkpt>
      <trkpt lat="56.856282865927" lon="14.767111223554">
        <ele>165.6</ele>
        <time>2020-03-14T16:07:07Z</time>
      </trkpt>
      <trkpt lat="56.856379173958" lon="14.767028745658">
        <ele>166</ele>
        <time>2020-03-14T16:07:12Z</time>
      </trkpt>
      <trkpt lat="56.85654077699" lon="14.766826825687">
        <ele>165.4</ele>
        <time>2020-03-14T16:07:20Z</time>
      </trkpt>
      <trkpt lat="56.85669248938" lon="14.766609231563">
        <ele>164.8</ele>
        <time>2020-03-14T16:07:26Z</time>
      </trkpt>
      <trkpt lat="56.856873286963" lon="14.766468583281">
        <ele>164.4</ele>
        <time>2020-03-14T16:07:35Z</time>
      </trkpt>
      <trkpt lat="56.857084343205" lon="14.766427428152">
        <ele>165</ele>
        <time>2020-03-14T16:07:42Z</time>
      </trkpt>
      <trkpt lat="56.857280228208" lon="14.766405719031">
        <ele>165.2</ele>
        <time>2020-03-14T16:07:48Z</time>
      </trkpt>
      <trkpt lat="56.85742339106" lon="14.766372442888">
        <ele>165.6</ele>
        <time>2020-03-14T16:07:52Z</time>
      </trkpt>
      <trkpt lat="56.85760360191" lon="14.766449221092">
        <ele>165.2</ele>
        <time>2020-03-14T16:07:59Z</time>
      </trkpt>
      <trkpt lat="56.857792781393" lon="14.766602526043">
        <ele>165</ele>
        <time>2020-03-14T16:08:07Z</time>
      </trkpt>
      <trkpt lat="56.857918090798" lon="14.766650302873">
        <ele>165.4</ele>
        <time>2020-03-14T16:08:12Z</time>
      </trkpt>
      <trkpt lat="56.858108359928" lon="14.766508816401">
        <ele>166</ele>
        <time>2020-03-14T16:08:18Z</time>
      </trkpt>
      <trkpt lat="56.85828505038" lon="14.766386440661">
        <ele>166.6</ele>
        <time>2020-03-14T16:08:26Z</time>
      </trkpt>
      <trkpt lat="56.8583755749" lon="14.76632449842">
        <ele>166.2</ele>
        <time>2020-03-14T16:08:30Z</time>
      </trkpt>
      <trkpt lat="56.858575650853" lon="14.7664435214">
        <ele>166.2</ele>
        <time>2020-03-14T16:08:36Z</time>
      </trkpt>
      <trkpt lat="56.858757202807" lon="14.76659858655">
        <ele>165.8</ele>
        <time>2020-03-14T16:08:41Z</time>
      </trkpt>
      <trkpt lat="56.858907406455" lon="14.766813330828">
        <ele>165.6</ele>
        <time>2020-03-14T16:08:47Z</time>
      </trkpt>
      <trkpt lat="56.859044618158" lon="14.767048862218">
        <ele>165.6</ele>
        <time>2020-03-14T16:08:53Z</time>
      </trkpt>
      <trkpt lat="56.859109074969" lon="14.767191270699">
        <ele>165.4</ele>
        <time>2020-03-14T16:08:57Z</time>
      </trkpt>
      <trkpt lat="56.859247376319" lon="14.767419677474">
        <ele>165.8</ele>
        <time>2020-03-14T16:09:04Z</time>
      </trkpt>
      <trkpt lat="56.859371679896" lon="14.767663171669">
        <ele>165.4</ele>
        <time>2020-03-14T16:09:10Z</time>
      </trkpt>
      <trkpt lat="56.859496570206" lon="14.767940947835">
        <ele>165.4</ele>
        <time>2020-03-14T16:09:16Z</time>
      </trkpt>
      <trkpt lat="56.859611150779" lon="14.768208330445">
        <ele>165.8</ele>
        <time>2020-03-14T16:09:22Z</time>
      </trkpt>
      <trkpt lat="56.859685749689" lon="14.768511000854">
        <ele>165.4</ele>
        <time>2020-03-14T16:09:29Z</time>
      </trkpt>
      <trkpt lat="56.859612240426" lon="14.768819119498">
        <ele>165.2</ele>
        <time>2020-03-14T16:09:35Z</time>
      </trkpt>
      <trkpt lat="56.859582736138" lon="14.768943758351">
        <ele>165.2</ele>
        <time>2020-03-14T16:09:39Z</time>
      </trkpt>
      <trkpt lat="56.859623136896" lon="14.769278615256">
        <ele>165.2</ele>
        <time>2020-03-14T16:09:48Z</time>
      </trkpt>
      <trkpt lat="56.859641660895" lon="14.769406187774">
        <ele>165.6</ele>
        <time>2020-03-14T16:09:51Z</time>
      </trkpt>
      <trkpt lat="56.859659849618" lon="14.769744062163">
        <ele>165.6</ele>
        <time>2020-03-14T16:09:57Z</time>
      </trkpt>
      <trkpt lat="56.859691449381" lon="14.769970289644">
        <ele>165.6</ele>
        <time>2020-03-14T16:10:01Z</time>
      </trkpt>
      <trkpt lat="56.859791529267" lon="14.770246976163">
        <ele>165.6</ele>
        <time>2020-03-14T16:10:07Z</time>
      </trkpt>
      <trkpt lat="56.859891441515" lon="14.770542438138">
        <ele>166</ele>
        <time>2020-03-14T16:10:15Z</time>
      </trkpt>
      <trkpt lat="56.859953216118" lon="14.770630783364">
        <ele>166.6</ele>
        <time>2020-03-14T16:10:18Z</time>
      </trkpt>
      <trkpt lat="56.860074250754" lon="14.770762463013">
        <ele>167.6</ele>
        <time>2020-03-14T16:10:24Z</time>
      </trkpt>
      <trkpt lat="56.860126134715" lon="14.770941081302">
        <ele>168.4</ele>
        <time>2020-03-14T16:10:28Z</time>
      </trkpt>
      <trkpt lat="56.860051032891" lon="14.771297563509">
        <ele>168.6</ele>
        <time>2020-03-14T16:10:37Z</time>
      </trkpt>
      <trkpt lat="56.860039465869" lon="14.771643735979">
        <ele>169.2</ele>
        <time>2020-03-14T16:10:44Z</time>
      </trkpt>
      <trkpt lat="56.860071987641" lon="14.771924361991">
        <ele>169.8</ele>
        <time>2020-03-14T16:10:49Z</time>
      </trkpt>
      <trkpt lat="56.860112053123" lon="14.772266008235">
        <ele>170.4</ele>
        <time>2020-03-14T16:10:56Z</time>
      </trkpt>
      <trkpt lat="56.860111382571" lon="14.772296434532">
        <ele>170.4</ele>
        <time>2020-03-14T16:10:57Z</time>
      </trkpt>
      <trkpt lat="56.860127643457" lon="14.772404896318">
        <ele>170.4</ele>
        <time>2020-03-14T16:11:00Z</time>
      </trkpt>
      <trkpt lat="56.860156561012" lon="14.772591309774">
        <ele>170.8</ele>
        <time>2020-03-14T16:11:03Z</time>
      </trkpt>
      <trkpt lat="56.860184975653" lon="14.772913593829">
        <ele>171.6</ele>
        <time>2020-03-14T16:11:09Z</time>
      </trkpt>
      <trkpt lat="56.86025731145" lon="14.773228753269">
        <ele>171</ele>
        <time>2020-03-14T16:11:16Z</time>
      </trkpt>
      <trkpt lat="56.86038052538" lon="14.77351113948">
        <ele>170.2</ele>
        <time>2020-03-14T16:11:23Z</time>
      </trkpt>
      <trkpt lat="56.860443808725" lon="14.773688500484">
        <ele>169.8</ele>
        <time>2020-03-14T16:11:27Z</time>
      </trkpt>
      <trkpt lat="56.860578086763" lon="14.773901903658">
        <ele>169.8</ele>
        <time>2020-03-14T16:11:34Z</time>
      </trkpt>
      <trkpt lat="56.860752597921" lon="14.773978095129">
        <ele>169.2</ele>
        <time>2020-03-14T16:11:44Z</time>
      </trkpt>
      <trkpt lat="56.860947058001" lon="14.773908022445">
        <ele>169.2</ele>
        <time>2020-03-14T16:11:55Z</time>
      </trkpt>
      <trkpt lat="56.861129280507" lon="14.774035175868">
        <ele>169.6</ele>
        <time>2020-03-14T16:12:05Z</time>
      </trkpt>
      <trkpt lat="56.861244447813" lon="14.774197700909">
        <ele>169.6</ele>
        <time>2020-03-14T16:12:10Z</time>
      </trkpt>
      <trkpt lat="56.861330529926" lon="14.774557703514">
        <ele>169.6</ele>
        <time>2020-03-14T16:12:18Z</time>
      </trkpt>
      <trkpt lat="56.861457012797" lon="14.774801868261">
        <ele>169.6</ele>
        <time>2020-03-14T16:12:22Z</time>
      </trkpt>
      <trkpt lat="56.861589279179" lon="14.77507604021">
        <ele>170.2</ele>
        <time>2020-03-14T16:12:27Z</time>
      </trkpt>
      <trkpt lat="56.861689526703" lon="14.775366640683">
        <ele>170.8</ele>
        <time>2020-03-14T16:12:34Z</time>
      </trkpt>
      <trkpt lat="56.861829420614" lon="14.77555548489">
        <ele>171.8</ele>
        <time>2020-03-14T16:12:41Z</time>
      </trkpt>
      <trkpt lat="56.861982055013" lon="14.775816581075">
        <ele>172.6</ele>
        <time>2020-03-14T16:12:48Z</time>
      </trkpt>
      <trkpt lat="56.862055061362" lon="14.776152108532">
        <ele>171.4</ele>
        <time>2020-03-14T16:12:55Z</time>
      </trkpt>
      <trkpt lat="56.862130330824" lon="14.776506495264">
        <ele>171</ele>
        <time>2020-03-14T16:13:02Z</time>
      </trkpt>
      <trkpt lat="56.862159835112" lon="14.77662082438">
        <ele>170.8</ele>
        <time>2020-03-14T16:13:04Z</time>
      </trkpt>
      <trkpt lat="56.862219095145" lon="14.776933720707">
        <ele>170.4</ele>
        <time>2020-03-14T16:13:10Z</time>
      </trkpt>
      <trkpt lat="56.862286904716" lon="14.777116027032">
        <ele>169.8</ele>
        <time>2020-03-14T16:13:14Z</time>
      </trkpt>
      <trkpt lat="56.862366700404" lon="14.777420876735">
        <ele>169.4</ele>
        <time>2020-03-14T16:13:21Z</time>
      </trkpt>
      <trkpt lat="56.862514892396" lon="14.777663784197">
        <ele>169.2</ele>
        <time>2020-03-14T16:13:28Z</time>
      </trkpt>
      <trkpt lat="56.862660150723" lon="14.777951199548">
        <ele>169.6</ele>
        <time>2020-03-14T16:13:34Z</time>
      </trkpt>
      <trkpt lat="56.862806750154" lon="14.778197711227">
        <ele>170</ele>
        <time>2020-03-14T16:13:40Z</time>
      </trkpt>
      <trkpt lat="56.862927868609" lon="14.778460064697">
        <ele>170</ele>
        <time>2020-03-14T16:13:46Z</time>
      </trkpt>
      <trkpt lat="56.862983524425" lon="14.778653602768">
        <ele>170.2</ele>
        <time>2020-03-14T16:13:50Z</time>
      </trkpt>
      <trkpt lat="56.863107241269" lon="14.7789241705">
        <ele>170</ele>
        <time>2020-03-14T16:13:57Z</time>
      </trkpt>
      <trkpt lat="56.863226012792" lon="14.779173280568">
        <ele>169.4</ele>
        <time>2020-03-14T16:14:06Z</time>
      </trkpt>
      <trkpt lat="56.863240932574" lon="14.779187194522">
        <ele>169.4</ele>
        <time>2020-03-14T16:14:07Z</time>
      </trkpt>
      <trkpt lat="56.863424663822" lon="14.779309821719">
        <ele>170.4</ele>
        <time>2020-03-14T16:14:16Z</time>
      </trkpt>
      <trkpt lat="56.863476044869" lon="14.779351479762">
        <ele>170.4</ele>
        <time>2020-03-14T16:14:18Z</time>
      </trkpt>
      <trkpt lat="56.86364108448" lon="14.779561278719">
        <ele>169</ele>
        <time>2020-03-14T16:14:25Z</time>
      </trkpt>
      <trkpt lat="56.863661620135" lon="14.779600506011">
        <ele>168.6</ele>
        <time>2020-03-14T16:14:26Z</time>
      </trkpt>
      <trkpt lat="56.863790869033" lon="14.779768563106">
        <ele>167.4</ele>
        <time>2020-03-14T16:14:31Z</time>
      </trkpt>
      <trkpt lat="56.863931014401" lon="14.779971908">
        <ele>166.6</ele>
        <time>2020-03-14T16:14:37Z</time>
      </trkpt>
      <trkpt lat="56.863958423214" lon="14.779996383148">
        <ele>166.4</ele>
        <time>2020-03-14T16:14:38Z</time>
      </trkpt>
      <trkpt lat="56.864043248042" lon="14.780041226313">
        <ele>166.2</ele>
        <time>2020-03-14T16:14:42Z</time>
      </trkpt>
      <trkpt lat="56.864226476376" lon="14.779949025413">
        <ele>166.8</ele>
        <time>2020-03-14T16:14:48Z</time>
      </trkpt>
      <trkpt lat="56.864401406629" lon="14.780191262323">
        <ele>166.6</ele>
        <time>2020-03-14T16:14:54Z</time>
      </trkpt>
      <trkpt lat="56.86452537493" lon="14.780437522545">
        <ele>166.8</ele>
        <time>2020-03-14T16:14:59Z</time>
      </trkpt>
      <trkpt lat="56.864619587486" lon="14.780742120791">
        <ele>167.2</ele>
        <time>2020-03-14T16:15:06Z</time>
      </trkpt>
      <trkpt lat="56.864635345458" lon="14.780846726903">
        <ele>167.4</ele>
        <time>2020-03-14T16:15:08Z</time>
      </trkpt>
      <trkpt lat="56.864767192745" lon="14.781119473929">
        <ele>167.8</ele>
        <time>2020-03-14T16:15:15Z</time>
      </trkpt>
      <trkpt lat="56.864873559056" lon="14.781424072175">
        <ele>167.6</ele>
        <time>2020-03-14T16:15:22Z</time>
      </trkpt>
      <trkpt lat="56.864935333659" lon="14.781583160637">
        <ele>167.6</ele>
        <time>2020-03-14T16:15:26Z</time>
      </trkpt>
      <trkpt lat="56.865050417146" lon="14.781845765564">
        <ele>167.2</ele>
        <time>2020-03-14T16:15:32Z</time>
      </trkpt>
      <trkpt lat="56.865160639131" lon="14.782160505909">
        <ele>167.4</ele>
        <time>2020-03-14T16:15:38Z</time>
      </trkpt>
      <trkpt lat="56.865256611886" lon="14.782462757223">
        <ele>168</ele>
        <time>2020-03-14T16:15:44Z</time>
      </trkpt>
      <trkpt lat="56.865303299069" lon="14.782651769068">
        <ele>168.4</ele>
        <time>2020-03-14T16:15:50Z</time>
      </trkpt>
      <trkpt lat="56.865297431739" lon="14.782697534242">
        <ele>168.4</ele>
        <time>2020-03-14T16:15:51Z</time>
      </trkpt>
      <trkpt lat="56.865414023968" lon="14.782971706191">
        <ele>168</ele>
        <time>2020-03-14T16:15:59Z</time>
      </trkpt>
      <trkpt lat="56.865544697789" lon="14.783206064115">
        <ele>167.6</ele>
        <time>2020-03-14T16:16:05Z</time>
      </trkpt>
      <trkpt lat="56.865608064953" lon="14.783363308559">
        <ele>167.6</ele>
        <time>2020-03-14T16:16:08Z</time>
      </trkpt>
      <trkpt lat="56.865694063247" lon="14.783675366696">
        <ele>166.4</ele>
        <time>2020-03-14T16:16:14Z</time>
      </trkpt>
      <trkpt lat="56.865708815391" lon="14.783709145753">
        <ele>166.4</ele>
        <time>2020-03-14T16:16:15Z</time>
      </trkpt>
      <trkpt lat="56.865724489544" lon="14.783802603938">
        <ele>166.4</ele>
        <time>2020-03-14T16:16:18Z</time>
      </trkpt>
      <trkpt lat="56.865788191984" lon="14.784121283776">
        <ele>166.2</ele>
        <time>2020-03-14T16:16:23Z</time>
      </trkpt>
      <trkpt lat="56.865849212216" lon="14.78444532803">
        <ele>166</ele>
        <time>2020-03-14T16:16:30Z</time>
      </trkpt>
      <trkpt lat="56.865837477556" lon="14.784654372616">
        <ele>165.8</ele>
        <time>2020-03-14T16:16:34Z</time>
      </trkpt>
      <trkpt lat="56.865828508923" lon="14.784766187162">
        <ele>165.6</ele>
        <time>2020-03-14T16:16:36Z</time>
      </trkpt>
      <trkpt lat="56.865842841972" lon="14.78485520294">
        <ele>165.6</ele>
        <time>2020-03-14T16:16:38Z</time>
      </trkpt>
      <trkpt lat="56.866010312334" lon="14.785020494008">
        <ele>166.2</ele>
        <time>2020-03-14T16:16:46Z</time>
      </trkpt>
      <trkpt lat="56.866196306695" lon="14.785180336841">
        <ele>166.2</ele>
        <time>2020-03-14T16:16:53Z</time>
      </trkpt>
      <trkpt lat="56.866316251684" lon="14.785421232647">
        <ele>166.6</ele>
        <time>2020-03-14T16:16:58Z</time>
      </trkpt>
      <trkpt lat="56.86639118587" lon="14.785741421227">
        <ele>166.4</ele>
        <time>2020-03-14T16:17:04Z</time>
      </trkpt>
      <trkpt lat="56.866385402359" lon="14.786133526509">
        <ele>166.6</ele>
        <time>2020-03-14T16:17:11Z</time>
      </trkpt>
      <trkpt lat="56.866403926358" lon="14.786490930725">
        <ele>166.4</ele>
        <time>2020-03-14T16:17:17Z</time>
      </trkpt>
      <trkpt lat="56.866435274664" lon="14.786833582797">
        <ele>166.4</ele>
        <time>2020-03-14T16:17:25Z</time>
      </trkpt>
      <trkpt lat="56.866421444529" lon="14.786945900257">
        <ele>166.2</ele>
        <time>2020-03-14T16:17:29Z</time>
      </trkpt>
      <trkpt lat="56.866432927732" lon="14.787295509306">
        <ele>167</ele>
        <time>2020-03-14T16:17:37Z</time>
      </trkpt>
      <trkpt lat="56.866461845287" lon="14.787466583885">
        <ele>167.4</ele>
        <time>2020-03-14T16:17:41Z</time>
      </trkpt>
      <trkpt lat="56.866457738156" lon="14.787523580805">
        <ele>167.6</ele>
        <time>2020-03-14T16:17:42Z</time>
      </trkpt>
      <trkpt lat="56.866482967675" lon="14.787840668082">
        <ele>168.6</ele>
        <time>2020-03-14T16:17:48Z</time>
      </trkpt>
      <trkpt lat="56.866509622117" lon="14.787921385779">
        <ele>169</ele>
        <time>2020-03-14T16:17:50Z</time>
      </trkpt>
      <trkpt lat="56.866595536592" lon="14.787998834535">
        <ele>169.2</ele>
        <time>2020-03-14T16:17:55Z</time>
      </trkpt>
      <trkpt lat="56.866662843249" lon="14.788069577771">
        <ele>168.6</ele>
        <time>2020-03-14T16:17:59Z</time>
      </trkpt>
      <trkpt lat="56.866787985016" lon="14.788299241831">
        <ele>169</ele>
        <time>2020-03-14T16:18:07Z</time>
      </trkpt>
      <trkpt lat="56.866897955544" lon="14.788598140385">
        <ele>169.2</ele>
        <time>2020-03-14T16:18:13Z</time>
      </trkpt>
      <trkpt lat="56.86694103851" lon="14.788679528634">
        <ele>169.6</ele>
        <time>2020-03-14T16:18:15Z</time>
      </trkpt>
      <trkpt lat="56.867109179424" lon="14.788847334272">
        <ele>169.8</ele>
        <time>2020-03-14T16:18:20Z</time>
      </trkpt>
      <trkpt lat="56.867166763077" lon="14.789022096887">
        <ele>170</ele>
        <time>2020-03-14T16:18:24Z</time>
      </trkpt>
      <trkpt lat="56.867271033913" lon="14.789292329343">
        <ele>170.6</ele>
        <time>2020-03-14T16:18:29Z</time>
      </trkpt>
      <trkpt lat="56.867290312283" lon="14.789355109774">
        <ele>170.8</ele>
        <time>2020-03-14T16:18:30Z</time>
      </trkpt>
      <trkpt lat="56.86737857369" lon="14.78965886983">
        <ele>171.2</ele>
        <time>2020-03-14T16:18:36Z</time>
      </trkpt>
      <trkpt lat="56.867410927824" lon="14.789737324414">
        <ele>171.8</ele>
        <time>2020-03-14T16:18:38Z</time>
      </trkpt>
      <trkpt lat="56.867523999655" lon="14.789827178382">
        <ele>172.8</ele>
        <time>2020-03-14T16:18:45Z</time>
      </trkpt>
      <trkpt lat="56.867551743744" lon="14.789811671867">
        <ele>174.2</ele>
        <time>2020-03-14T16:18:48Z</time>
      </trkpt>
      <trkpt lat="56.867659115883" lon="14.789784430692">
        <ele>174.8</ele>
        <time>2020-03-14T16:18:53Z</time>
      </trkpt>
      <trkpt lat="56.867708736731" lon="14.789790633298">
        <ele>175.2</ele>
        <time>2020-03-14T16:18:55Z</time>
      </trkpt>
      <trkpt lat="56.867857012542" lon="14.789766241969">
        <ele>176.4</ele>
        <time>2020-03-14T16:19:01Z</time>
      </trkpt>
      <trkpt lat="56.868058681056" lon="14.789696839837">
        <ele>177.2</ele>
        <time>2020-03-14T16:19:08Z</time>
      </trkpt>
      <trkpt lat="56.868217350423" lon="14.789627353886">
        <ele>177.6</ele>
        <time>2020-03-14T16:19:14Z</time>
      </trkpt>
      <trkpt lat="56.868384736966" lon="14.789789711289">
        <ele>177</ele>
        <time>2020-03-14T16:19:21Z</time>
      </trkpt>
      <trkpt lat="56.868554218984" lon="14.789975538012">
        <ele>177.2</ele>
        <time>2020-03-14T16:19:27Z</time>
      </trkpt>
      <trkpt lat="56.868685144262" lon="14.790046448886">
        <ele>176.6</ele>
        <time>2020-03-14T16:19:30Z</time>
      </trkpt>
      <trkpt lat="56.868755216946" lon="14.790151893188">
        <ele>175.4</ele>
        <time>2020-03-14T16:19:33Z</time>
      </trkpt>
      <trkpt lat="56.868825960182" lon="14.790240489871">
        <ele>174.2</ele>
        <time>2020-03-14T16:19:35Z</time>
      </trkpt>
      <trkpt lat="56.868918580177" lon="14.790379042678">
        <ele>172.4</ele>
        <time>2020-03-14T16:19:38Z</time>
      </trkpt>
      <trkpt lat="56.868985132463" lon="14.790489097025">
        <ele>171</ele>
        <time>2020-03-14T16:19:40Z</time>
      </trkpt>
      <trkpt lat="56.869045901238" lon="14.790599654286">
        <ele>170</ele>
        <time>2020-03-14T16:19:42Z</time>
      </trkpt>
      <trkpt lat="56.869146064943" lon="14.790765532087">
        <ele>168.6</ele>
        <time>2020-03-14T16:19:45Z</time>
      </trkpt>
      <trkpt lat="56.869240445137" lon="14.790887069637">
        <ele>167.4</ele>
        <time>2020-03-14T16:19:48Z</time>
      </trkpt>
      <trkpt lat="56.869289898347" lon="14.790926548386">
        <ele>167.4</ele>
        <time>2020-03-14T16:19:50Z</time>
      </trkpt>
      <trkpt lat="56.869429373163" lon="14.790716078877">
        <ele>167.8</ele>
        <time>2020-03-14T16:19:57Z</time>
      </trkpt>
      <trkpt lat="56.869491985956" lon="14.790359261394">
        <ele>166.8</ele>
        <time>2020-03-14T16:20:04Z</time>
      </trkpt>
      <trkpt lat="56.869556945681" lon="14.79004527542">
        <ele>166.6</ele>
        <time>2020-03-14T16:20:10Z</time>
      </trkpt>
      <trkpt lat="56.869622659777" lon="14.789691475421">
        <ele>166.8</ele>
        <time>2020-03-14T16:20:17Z</time>
      </trkpt>
      <trkpt lat="56.869646380554" lon="14.789519981747">
        <ele>166.4</ele>
        <time>2020-03-14T16:20:20Z</time>
      </trkpt>
      <trkpt lat="56.869753836512" lon="14.789214712949">
        <ele>166</ele>
        <time>2020-03-14T16:20:26Z</time>
      </trkpt>
      <trkpt lat="56.869801194247" lon="14.78897071584">
        <ele>166.6</ele>
        <time>2020-03-14T16:20:31Z</time>
      </trkpt>
      <trkpt lat="56.869842600833" lon="14.78898999421">
        <ele>166.6</ele>
        <time>2020-03-14T16:20:33Z</time>
      </trkpt>
      <trkpt lat="56.870008730091" lon="14.78916266135">
        <ele>167</ele>
        <time>2020-03-14T16:20:39Z</time>
      </trkpt>
      <trkpt lat="56.870096320946" lon="14.789245893617">
        <ele>167.4</ele>
        <time>2020-03-14T16:20:42Z</time>
      </trkpt>
      <trkpt lat="56.870282399126" lon="14.789346476417">
        <ele>167.4</ele>
        <time>2020-03-14T16:20:47Z</time>
      </trkpt>
      <trkpt lat="56.870459927768" lon="14.789457285135">
        <ele>167.8</ele>
        <time>2020-03-14T16:20:52Z</time>
      </trkpt>
      <trkpt lat="56.870560259111" lon="14.789554682813">
        <ele>168.6</ele>
        <time>2020-03-14T16:20:55Z</time>
      </trkpt>
      <trkpt lat="56.870697722271" lon="14.789691475421">
        <ele>169.8</ele>
        <time>2020-03-14T16:20:59Z</time>
      </trkpt>
      <trkpt lat="56.870833844327" lon="14.78984327163">
        <ele>170.8</ele>
        <time>2020-03-14T16:21:04Z</time>
      </trkpt>
      <trkpt lat="56.870952699669" lon="14.789967742845">
        <ele>172</ele>
        <time>2020-03-14T16:21:08Z</time>
      </trkpt>
      <trkpt lat="56.871069794812" lon="14.790104367815">
        <ele>173</ele>
        <time>2020-03-14T16:21:12Z</time>
      </trkpt>
      <trkpt lat="56.87123424769" lon="14.790295391316">
        <ele>173</ele>
        <time>2020-03-14T16:21:18Z</time>
      </trkpt>
      <trkpt lat="56.871373973963" lon="14.790469148103">
        <ele>174.2</ele>
        <time>2020-03-14T16:21:23Z</time>
      </trkpt>
      <trkpt lat="56.871427534304" lon="14.790525055376">
        <ele>174.6</ele>
        <time>2020-03-14T16:21:25Z</time>
      </trkpt>
    </trkseg>
  </trk>
</gpx>